<?xml version="1.0" encoding="UTF-8" standalone="no" ?>
<gpx xmlns="http://www.topografix.com/GPX/1/1" xmlns:xsi="http://www.w3.org/2001/XMLSchema-instance" xsi:schemaLocation="http://www.topografix.com/GPX/1/1 http://www.topografix.com/GPX/1/1/gpx.xsd" version="1.1" creator="VisuGPX - https://www.visugpx.com">
  <metadata>
    <name>Sortie Jeudical du 23 mars 2011</name>
    <desc><![CDATA[Asthmaton  sponsorisé par Ventoline et Aerius ( merci au labo!)]]></desc>
  </metadata>
  <trk>
    <name><![CDATA[Tracé 24 mars 2011 08:27:05]]></name>
    <trkseg>
      <trkpt lat="49.89558" lon="1.0358">
        <ele>187</ele>
        <time>2011-03-24T07:27:05Z</time>
      </trkpt>
      <trkpt lat="49.89558" lon="1.03566">
        <ele>175</ele>
        <time>2011-03-24T07:27:19Z</time>
      </trkpt>
      <trkpt lat="49.89561" lon="1.03552">
        <ele>171</ele>
        <time>2011-03-24T07:27:43Z</time>
      </trkpt>
      <trkpt lat="49.89558" lon="1.03561">
        <ele>171</ele>
        <time>2011-03-24T07:28:36Z</time>
      </trkpt>
      <trkpt lat="49.89506" lon="1.03526">
        <ele>173</ele>
        <time>2011-03-24T07:28:50Z</time>
      </trkpt>
      <trkpt lat="49.89488" lon="1.03503">
        <ele>174</ele>
        <time>2011-03-24T07:29:04Z</time>
      </trkpt>
      <trkpt lat="49.89553" lon="1.03446">
        <ele>173</ele>
        <time>2011-03-24T07:29:18Z</time>
      </trkpt>
      <trkpt lat="49.89604" lon="1.03417">
        <ele>172</ele>
        <time>2011-03-24T07:29:32Z</time>
      </trkpt>
      <trkpt lat="49.89626" lon="1.03404">
        <ele>172</ele>
        <time>2011-03-24T07:29:46Z</time>
      </trkpt>
      <trkpt lat="49.89647" lon="1.0338">
        <ele>169</ele>
        <time>2011-03-24T07:30:00Z</time>
      </trkpt>
      <trkpt lat="49.89689" lon="1.0329">
        <ele>155</ele>
        <time>2011-03-24T07:30:14Z</time>
      </trkpt>
      <trkpt lat="49.89718" lon="1.0315">
        <ele>152</ele>
        <time>2011-03-24T07:30:28Z</time>
      </trkpt>
      <trkpt lat="49.89754" lon="1.03056">
        <ele>155</ele>
        <time>2011-03-24T07:30:42Z</time>
      </trkpt>
      <trkpt lat="49.89814" lon="1.03056">
        <ele>153</ele>
        <time>2011-03-24T07:30:56Z</time>
      </trkpt>
      <trkpt lat="49.89866" lon="1.03157">
        <ele>152</ele>
        <time>2011-03-24T07:31:10Z</time>
      </trkpt>
      <trkpt lat="49.8995" lon="1.03281">
        <ele>152</ele>
        <time>2011-03-24T07:31:24Z</time>
      </trkpt>
      <trkpt lat="49.90026" lon="1.03383">
        <ele>150</ele>
        <time>2011-03-24T07:31:38Z</time>
      </trkpt>
      <trkpt lat="49.90089" lon="1.03393">
        <ele>152</ele>
        <time>2011-03-24T07:31:52Z</time>
      </trkpt>
      <trkpt lat="49.90138" lon="1.03399">
        <ele>150</ele>
        <time>2011-03-24T07:32:06Z</time>
      </trkpt>
      <trkpt lat="49.9018" lon="1.03394">
        <ele>150</ele>
        <time>2011-03-24T07:32:20Z</time>
      </trkpt>
      <trkpt lat="49.90227" lon="1.03331">
        <ele>149</ele>
        <time>2011-03-24T07:32:34Z</time>
      </trkpt>
      <trkpt lat="49.90281" lon="1.0322">
        <ele>147</ele>
        <time>2011-03-24T07:32:48Z</time>
      </trkpt>
      <trkpt lat="49.90417" lon="1.03229">
        <ele>146</ele>
        <time>2011-03-24T07:33:02Z</time>
      </trkpt>
      <trkpt lat="49.90447" lon="1.03243">
        <ele>146</ele>
        <time>2011-03-24T07:33:16Z</time>
      </trkpt>
      <trkpt lat="49.90483" lon="1.03144">
        <ele>145</ele>
        <time>2011-03-24T07:33:30Z</time>
      </trkpt>
      <trkpt lat="49.90548" lon="1.03063">
        <ele>145</ele>
        <time>2011-03-24T07:33:44Z</time>
      </trkpt>
      <trkpt lat="49.90648" lon="1.03038">
        <ele>145</ele>
        <time>2011-03-24T07:33:58Z</time>
      </trkpt>
      <trkpt lat="49.90775" lon="1.03059">
        <ele>144</ele>
        <time>2011-03-24T07:34:12Z</time>
      </trkpt>
      <trkpt lat="49.90933" lon="1.03101">
        <ele>140</ele>
        <time>2011-03-24T07:34:26Z</time>
      </trkpt>
      <trkpt lat="49.91026" lon="1.03196">
        <ele>134</ele>
        <time>2011-03-24T07:34:40Z</time>
      </trkpt>
      <trkpt lat="49.91065" lon="1.03318">
        <ele>131</ele>
        <time>2011-03-24T07:34:54Z</time>
      </trkpt>
      <trkpt lat="49.91129" lon="1.03415">
        <ele>126</ele>
        <time>2011-03-24T07:35:08Z</time>
      </trkpt>
      <trkpt lat="49.91258" lon="1.0343">
        <ele>117</ele>
        <time>2011-03-24T07:35:22Z</time>
      </trkpt>
      <trkpt lat="49.91342" lon="1.03406">
        <ele>109</ele>
        <time>2011-03-24T07:35:36Z</time>
      </trkpt>
      <trkpt lat="49.91341" lon="1.03417">
        <ele>93</ele>
        <time>2011-03-24T07:38:41Z</time>
      </trkpt>
      <trkpt lat="49.91373" lon="1.03368">
        <ele>67</ele>
        <time>2011-03-24T07:38:55Z</time>
      </trkpt>
      <trkpt lat="49.91403" lon="1.03281">
        <ele>59</ele>
        <time>2011-03-24T07:39:09Z</time>
      </trkpt>
      <trkpt lat="49.91432" lon="1.03184">
        <ele>58</ele>
        <time>2011-03-24T07:39:23Z</time>
      </trkpt>
      <trkpt lat="49.91476" lon="1.03128">
        <ele>57</ele>
        <time>2011-03-24T07:39:37Z</time>
      </trkpt>
      <trkpt lat="49.91565" lon="1.03183">
        <ele>54</ele>
        <time>2011-03-24T07:39:51Z</time>
      </trkpt>
      <trkpt lat="49.91645" lon="1.03152">
        <ele>53</ele>
        <time>2011-03-24T07:40:05Z</time>
      </trkpt>
      <trkpt lat="49.91688" lon="1.03119">
        <ele>53</ele>
        <time>2011-03-24T07:40:19Z</time>
      </trkpt>
      <trkpt lat="49.91717" lon="1.03185">
        <ele>53</ele>
        <time>2011-03-24T07:40:33Z</time>
      </trkpt>
      <trkpt lat="49.91751" lon="1.03275">
        <ele>52</ele>
        <time>2011-03-24T07:40:47Z</time>
      </trkpt>
      <trkpt lat="49.91785" lon="1.03364">
        <ele>50</ele>
        <time>2011-03-24T07:41:01Z</time>
      </trkpt>
      <trkpt lat="49.91819" lon="1.03455">
        <ele>50</ele>
        <time>2011-03-24T07:41:15Z</time>
      </trkpt>
      <trkpt lat="49.91825" lon="1.03539">
        <ele>50</ele>
        <time>2011-03-24T07:41:29Z</time>
      </trkpt>
      <trkpt lat="49.9181" lon="1.03607">
        <ele>50</ele>
        <time>2011-03-24T07:41:43Z</time>
      </trkpt>
      <trkpt lat="49.91809" lon="1.0367">
        <ele>51</ele>
        <time>2011-03-24T07:41:57Z</time>
      </trkpt>
      <trkpt lat="49.9179" lon="1.03699">
        <ele>52</ele>
        <time>2011-03-24T07:42:11Z</time>
      </trkpt>
      <trkpt lat="49.91775" lon="1.0373">
        <ele>53</ele>
        <time>2011-03-24T07:42:25Z</time>
      </trkpt>
      <trkpt lat="49.91774" lon="1.03768">
        <ele>55</ele>
        <time>2011-03-24T07:42:39Z</time>
      </trkpt>
      <trkpt lat="49.91777" lon="1.03808">
        <ele>56</ele>
        <time>2011-03-24T07:42:53Z</time>
      </trkpt>
      <trkpt lat="49.91781" lon="1.03839">
        <ele>57</ele>
        <time>2011-03-24T07:43:07Z</time>
      </trkpt>
      <trkpt lat="49.91784" lon="1.03874">
        <ele>58</ele>
        <time>2011-03-24T07:43:21Z</time>
      </trkpt>
      <trkpt lat="49.91784" lon="1.03905">
        <ele>59</ele>
        <time>2011-03-24T07:43:35Z</time>
      </trkpt>
      <trkpt lat="49.91788" lon="1.03948">
        <ele>59</ele>
        <time>2011-03-24T07:43:49Z</time>
      </trkpt>
      <trkpt lat="49.9179" lon="1.03994">
        <ele>59</ele>
        <time>2011-03-24T07:44:03Z</time>
      </trkpt>
      <trkpt lat="49.91789" lon="1.04041">
        <ele>63</ele>
        <time>2011-03-24T07:44:17Z</time>
      </trkpt>
      <trkpt lat="49.9179" lon="1.04093">
        <ele>66</ele>
        <time>2011-03-24T07:44:31Z</time>
      </trkpt>
      <trkpt lat="49.91795" lon="1.04144">
        <ele>69</ele>
        <time>2011-03-24T07:44:45Z</time>
      </trkpt>
      <trkpt lat="49.91802" lon="1.04191">
        <ele>72</ele>
        <time>2011-03-24T07:44:59Z</time>
      </trkpt>
      <trkpt lat="49.91831" lon="1.04201">
        <ele>76</ele>
        <time>2011-03-24T07:45:13Z</time>
      </trkpt>
      <trkpt lat="49.91852" lon="1.04218">
        <ele>79</ele>
        <time>2011-03-24T07:45:27Z</time>
      </trkpt>
      <trkpt lat="49.91867" lon="1.0425">
        <ele>83</ele>
        <time>2011-03-24T07:45:41Z</time>
      </trkpt>
      <trkpt lat="49.91876" lon="1.04283">
        <ele>84</ele>
        <time>2011-03-24T07:45:55Z</time>
      </trkpt>
      <trkpt lat="49.91889" lon="1.04318">
        <ele>86</ele>
        <time>2011-03-24T07:46:09Z</time>
      </trkpt>
      <trkpt lat="49.9191" lon="1.04374">
        <ele>88</ele>
        <time>2011-03-24T07:46:23Z</time>
      </trkpt>
      <trkpt lat="49.91935" lon="1.0443">
        <ele>91</ele>
        <time>2011-03-24T07:46:37Z</time>
      </trkpt>
      <trkpt lat="49.91961" lon="1.04487">
        <ele>94</ele>
        <time>2011-03-24T07:46:51Z</time>
      </trkpt>
      <trkpt lat="49.91986" lon="1.04541">
        <ele>96</ele>
        <time>2011-03-24T07:47:05Z</time>
      </trkpt>
      <trkpt lat="49.92007" lon="1.04601">
        <ele>98</ele>
        <time>2011-03-24T07:47:19Z</time>
      </trkpt>
      <trkpt lat="49.92007" lon="1.0467">
        <ele>100</ele>
        <time>2011-03-24T07:47:33Z</time>
      </trkpt>
      <trkpt lat="49.92008" lon="1.04739">
        <ele>105</ele>
        <time>2011-03-24T07:47:47Z</time>
      </trkpt>
      <trkpt lat="49.92013" lon="1.04811">
        <ele>109</ele>
        <time>2011-03-24T07:48:01Z</time>
      </trkpt>
      <trkpt lat="49.92019" lon="1.04883">
        <ele>113</ele>
        <time>2011-03-24T07:48:15Z</time>
      </trkpt>
      <trkpt lat="49.92025" lon="1.04975">
        <ele>123</ele>
        <time>2011-03-24T07:48:29Z</time>
      </trkpt>
      <trkpt lat="49.92034" lon="1.05078">
        <ele>124</ele>
        <time>2011-03-24T07:48:43Z</time>
      </trkpt>
      <trkpt lat="49.92045" lon="1.05178">
        <ele>126</ele>
        <time>2011-03-24T07:48:57Z</time>
      </trkpt>
      <trkpt lat="49.92071" lon="1.05276">
        <ele>128</ele>
        <time>2011-03-24T07:49:11Z</time>
      </trkpt>
      <trkpt lat="49.92089" lon="1.05385">
        <ele>129</ele>
        <time>2011-03-24T07:49:25Z</time>
      </trkpt>
      <trkpt lat="49.92103" lon="1.0549">
        <ele>128</ele>
        <time>2011-03-24T07:49:39Z</time>
      </trkpt>
      <trkpt lat="49.92133" lon="1.05581">
        <ele>129</ele>
        <time>2011-03-24T07:49:53Z</time>
      </trkpt>
      <trkpt lat="49.92169" lon="1.05667">
        <ele>129</ele>
        <time>2011-03-24T07:50:07Z</time>
      </trkpt>
      <trkpt lat="49.92157" lon="1.0578">
        <ele>131</ele>
        <time>2011-03-24T07:50:21Z</time>
      </trkpt>
      <trkpt lat="49.92097" lon="1.05887">
        <ele>130</ele>
        <time>2011-03-24T07:50:35Z</time>
      </trkpt>
      <trkpt lat="49.92065" lon="1.06071">
        <ele>130</ele>
        <time>2011-03-24T07:50:49Z</time>
      </trkpt>
      <trkpt lat="49.92058" lon="1.06247">
        <ele>129</ele>
        <time>2011-03-24T07:51:03Z</time>
      </trkpt>
      <trkpt lat="49.92085" lon="1.06416">
        <ele>131</ele>
        <time>2011-03-24T07:51:17Z</time>
      </trkpt>
      <trkpt lat="49.9209" lon="1.06551">
        <ele>123</ele>
        <time>2011-03-24T07:51:31Z</time>
      </trkpt>
      <trkpt lat="49.92111" lon="1.06721">
        <ele>107</ele>
        <time>2011-03-24T07:51:45Z</time>
      </trkpt>
      <trkpt lat="49.92166" lon="1.0688">
        <ele>102</ele>
        <time>2011-03-24T07:51:59Z</time>
      </trkpt>
      <trkpt lat="49.92237" lon="1.06993">
        <ele>94</ele>
        <time>2011-03-24T07:52:13Z</time>
      </trkpt>
      <trkpt lat="49.92311" lon="1.07129">
        <ele>91</ele>
        <time>2011-03-24T07:52:27Z</time>
      </trkpt>
      <trkpt lat="49.92309" lon="1.07268">
        <ele>88</ele>
        <time>2011-03-24T07:52:41Z</time>
      </trkpt>
      <trkpt lat="49.9231" lon="1.07279">
        <ele>87</ele>
        <time>2011-03-24T07:53:39Z</time>
      </trkpt>
      <trkpt lat="49.92309" lon="1.07417">
        <ele>76</ele>
        <time>2011-03-24T07:53:53Z</time>
      </trkpt>
      <trkpt lat="49.92317" lon="1.0754">
        <ele>77</ele>
        <time>2011-03-24T07:54:07Z</time>
      </trkpt>
      <trkpt lat="49.92317" lon="1.0754">
        <ele>77</ele>
        <time>2011-03-24T07:54:26Z</time>
      </trkpt>
      <trkpt lat="49.92246" lon="1.07644">
        <ele>68</ele>
        <time>2011-03-24T07:54:40Z</time>
      </trkpt>
      <trkpt lat="49.92191" lon="1.07755">
        <ele>63</ele>
        <time>2011-03-24T07:54:54Z</time>
      </trkpt>
      <trkpt lat="49.92192" lon="1.07821">
        <ele>62</ele>
        <time>2011-03-24T07:55:08Z</time>
      </trkpt>
      <trkpt lat="49.92193" lon="1.0783">
        <ele>62</ele>
        <time>2011-03-24T07:55:22Z</time>
      </trkpt>
      <trkpt lat="49.92196" lon="1.07957">
        <ele>60</ele>
        <time>2011-03-24T07:55:36Z</time>
      </trkpt>
      <trkpt lat="49.92202" lon="1.08084">
        <ele>61</ele>
        <time>2011-03-24T07:55:50Z</time>
      </trkpt>
      <trkpt lat="49.92202" lon="1.0809">
        <ele>60</ele>
        <time>2011-03-24T07:56:15Z</time>
      </trkpt>
      <trkpt lat="49.92214" lon="1.08179">
        <ele>59</ele>
        <time>2011-03-24T07:56:29Z</time>
      </trkpt>
      <trkpt lat="49.92249" lon="1.08252">
        <ele>61</ele>
        <time>2011-03-24T07:56:43Z</time>
      </trkpt>
      <trkpt lat="49.92288" lon="1.0832">
        <ele>62</ele>
        <time>2011-03-24T07:56:57Z</time>
      </trkpt>
      <trkpt lat="49.92332" lon="1.08395">
        <ele>62</ele>
        <time>2011-03-24T07:57:12Z</time>
      </trkpt>
      <trkpt lat="49.92392" lon="1.08443">
        <ele>61</ele>
        <time>2011-03-24T07:57:26Z</time>
      </trkpt>
      <trkpt lat="49.9246" lon="1.08369">
        <ele>60</ele>
        <time>2011-03-24T07:57:40Z</time>
      </trkpt>
      <trkpt lat="49.92544" lon="1.08312">
        <ele>60</ele>
        <time>2011-03-24T07:57:54Z</time>
      </trkpt>
      <trkpt lat="49.92602" lon="1.0831">
        <ele>57</ele>
        <time>2011-03-24T07:58:08Z</time>
      </trkpt>
      <trkpt lat="49.92634" lon="1.08404">
        <ele>55</ele>
        <time>2011-03-24T07:58:22Z</time>
      </trkpt>
      <trkpt lat="49.92693" lon="1.08469">
        <ele>55</ele>
        <time>2011-03-24T07:58:36Z</time>
      </trkpt>
      <trkpt lat="49.92726" lon="1.08502">
        <ele>56</ele>
        <time>2011-03-24T07:58:50Z</time>
      </trkpt>
      <trkpt lat="49.92725" lon="1.08532">
        <ele>56</ele>
        <time>2011-03-24T07:59:04Z</time>
      </trkpt>
      <trkpt lat="49.92757" lon="1.08543">
        <ele>58</ele>
        <time>2011-03-24T07:59:18Z</time>
      </trkpt>
      <trkpt lat="49.92813" lon="1.08574">
        <ele>57</ele>
        <time>2011-03-24T07:59:32Z</time>
      </trkpt>
      <trkpt lat="49.92836" lon="1.08617">
        <ele>56</ele>
        <time>2011-03-24T07:59:46Z</time>
      </trkpt>
      <trkpt lat="49.92841" lon="1.0864">
        <ele>57</ele>
        <time>2011-03-24T08:00:00Z</time>
      </trkpt>
      <trkpt lat="49.92848" lon="1.08649">
        <ele>58</ele>
        <time>2011-03-24T08:00:41Z</time>
      </trkpt>
      <trkpt lat="49.92858" lon="1.0865">
        <ele>58</ele>
        <time>2011-03-24T08:00:55Z</time>
      </trkpt>
      <trkpt lat="49.92868" lon="1.0867">
        <ele>59</ele>
        <time>2011-03-24T08:01:09Z</time>
      </trkpt>
      <trkpt lat="49.92871" lon="1.08682">
        <ele>58</ele>
        <time>2011-03-24T08:01:25Z</time>
      </trkpt>
      <trkpt lat="49.92876" lon="1.08695">
        <ele>58</ele>
        <time>2011-03-24T08:01:39Z</time>
      </trkpt>
      <trkpt lat="49.92882" lon="1.08712">
        <ele>60</ele>
        <time>2011-03-24T08:01:53Z</time>
      </trkpt>
      <trkpt lat="49.92888" lon="1.08726">
        <ele>59</ele>
        <time>2011-03-24T08:02:07Z</time>
      </trkpt>
      <trkpt lat="49.92903" lon="1.08769">
        <ele>61</ele>
        <time>2011-03-24T08:02:21Z</time>
      </trkpt>
      <trkpt lat="49.92898" lon="1.08831">
        <ele>62</ele>
        <time>2011-03-24T08:02:35Z</time>
      </trkpt>
      <trkpt lat="49.92914" lon="1.08908">
        <ele>63</ele>
        <time>2011-03-24T08:02:49Z</time>
      </trkpt>
      <trkpt lat="49.92955" lon="1.08971">
        <ele>70</ele>
        <time>2011-03-24T08:03:03Z</time>
      </trkpt>
      <trkpt lat="49.92995" lon="1.09049">
        <ele>72</ele>
        <time>2011-03-24T08:03:17Z</time>
      </trkpt>
      <trkpt lat="49.93034" lon="1.09121">
        <ele>73</ele>
        <time>2011-03-24T08:03:31Z</time>
      </trkpt>
      <trkpt lat="49.93075" lon="1.09184">
        <ele>75</ele>
        <time>2011-03-24T08:03:45Z</time>
      </trkpt>
      <trkpt lat="49.93108" lon="1.09253">
        <ele>76</ele>
        <time>2011-03-24T08:03:59Z</time>
      </trkpt>
      <trkpt lat="49.93141" lon="1.09319">
        <ele>77</ele>
        <time>2011-03-24T08:04:13Z</time>
      </trkpt>
      <trkpt lat="49.93169" lon="1.09399">
        <ele>77</ele>
        <time>2011-03-24T08:04:27Z</time>
      </trkpt>
      <trkpt lat="49.93194" lon="1.09486">
        <ele>78</ele>
        <time>2011-03-24T08:04:41Z</time>
      </trkpt>
      <trkpt lat="49.93219" lon="1.09574">
        <ele>79</ele>
        <time>2011-03-24T08:04:55Z</time>
      </trkpt>
      <trkpt lat="49.93245" lon="1.09661">
        <ele>82</ele>
        <time>2011-03-24T08:05:09Z</time>
      </trkpt>
      <trkpt lat="49.93279" lon="1.09754">
        <ele>84</ele>
        <time>2011-03-24T08:05:23Z</time>
      </trkpt>
      <trkpt lat="49.93318" lon="1.09847">
        <ele>85</ele>
        <time>2011-03-24T08:05:37Z</time>
      </trkpt>
      <trkpt lat="49.93357" lon="1.09942">
        <ele>86</ele>
        <time>2011-03-24T08:05:51Z</time>
      </trkpt>
      <trkpt lat="49.93393" lon="1.10039">
        <ele>88</ele>
        <time>2011-03-24T08:06:05Z</time>
      </trkpt>
      <trkpt lat="49.93431" lon="1.10137">
        <ele>90</ele>
        <time>2011-03-24T08:06:19Z</time>
      </trkpt>
      <trkpt lat="49.93481" lon="1.10207">
        <ele>92</ele>
        <time>2011-03-24T08:06:33Z</time>
      </trkpt>
      <trkpt lat="49.93518" lon="1.10295">
        <ele>93</ele>
        <time>2011-03-24T08:06:47Z</time>
      </trkpt>
      <trkpt lat="49.9351" lon="1.10429">
        <ele>94</ele>
        <time>2011-03-24T08:07:01Z</time>
      </trkpt>
      <trkpt lat="49.93521" lon="1.10559">
        <ele>94</ele>
        <time>2011-03-24T08:07:15Z</time>
      </trkpt>
      <trkpt lat="49.93521" lon="1.1068">
        <ele>94</ele>
        <time>2011-03-24T08:07:29Z</time>
      </trkpt>
      <trkpt lat="49.93522" lon="1.10802">
        <ele>96</ele>
        <time>2011-03-24T08:07:43Z</time>
      </trkpt>
      <trkpt lat="49.93523" lon="1.10931">
        <ele>96</ele>
        <time>2011-03-24T08:07:57Z</time>
      </trkpt>
      <trkpt lat="49.93526" lon="1.11066">
        <ele>97</ele>
        <time>2011-03-24T08:08:11Z</time>
      </trkpt>
      <trkpt lat="49.93524" lon="1.11212">
        <ele>96</ele>
        <time>2011-03-24T08:08:25Z</time>
      </trkpt>
      <trkpt lat="49.93552" lon="1.11373">
        <ele>95</ele>
        <time>2011-03-24T08:08:39Z</time>
      </trkpt>
      <trkpt lat="49.93601" lon="1.1151">
        <ele>95</ele>
        <time>2011-03-24T08:08:53Z</time>
      </trkpt>
      <trkpt lat="49.93577" lon="1.11663">
        <ele>96</ele>
        <time>2011-03-24T08:09:07Z</time>
      </trkpt>
      <trkpt lat="49.93604" lon="1.11778">
        <ele>96</ele>
        <time>2011-03-24T08:09:21Z</time>
      </trkpt>
      <trkpt lat="49.9365" lon="1.11862">
        <ele>95</ele>
        <time>2011-03-24T08:09:35Z</time>
      </trkpt>
      <trkpt lat="49.93665" lon="1.11943">
        <ele>91</ele>
        <time>2011-03-24T08:09:49Z</time>
      </trkpt>
      <trkpt lat="49.93656" lon="1.11965">
        <ele>91</ele>
        <time>2011-03-24T08:10:03Z</time>
      </trkpt>
      <trkpt lat="49.93654" lon="1.11976">
        <ele>90</ele>
        <time>2011-03-24T08:10:28Z</time>
      </trkpt>
      <trkpt lat="49.93648" lon="1.11986">
        <ele>91</ele>
        <time>2011-03-24T08:11:18Z</time>
      </trkpt>
      <trkpt lat="49.93639" lon="1.11982">
        <ele>91</ele>
        <time>2011-03-24T08:11:38Z</time>
      </trkpt>
      <trkpt lat="49.93642" lon="1.11973">
        <ele>91</ele>
        <time>2011-03-24T08:19:00Z</time>
      </trkpt>
      <trkpt lat="49.9362" lon="1.11871">
        <ele>86</ele>
        <time>2011-03-24T08:20:12Z</time>
      </trkpt>
      <trkpt lat="49.9364" lon="1.1201">
        <ele>89</ele>
        <time>2011-03-24T08:20:26Z</time>
      </trkpt>
      <trkpt lat="49.93644" lon="1.12">
        <ele>88</ele>
        <time>2011-03-24T08:22:03Z</time>
      </trkpt>
      <trkpt lat="49.93649" lon="1.1199">
        <ele>87</ele>
        <time>2011-03-24T08:24:33Z</time>
      </trkpt>
      <trkpt lat="49.93655" lon="1.1198">
        <ele>87</ele>
        <time>2011-03-24T08:25:18Z</time>
      </trkpt>
      <trkpt lat="49.93661" lon="1.11942">
        <ele>87</ele>
        <time>2011-03-24T08:25:32Z</time>
      </trkpt>
      <trkpt lat="49.93682" lon="1.11981">
        <ele>87</ele>
        <time>2011-03-24T08:25:46Z</time>
      </trkpt>
      <trkpt lat="49.93704" lon="1.12037">
        <ele>88</ele>
        <time>2011-03-24T08:26:00Z</time>
      </trkpt>
      <trkpt lat="49.93675" lon="1.12064">
        <ele>89</ele>
        <time>2011-03-24T08:26:14Z</time>
      </trkpt>
      <trkpt lat="49.93646" lon="1.1209">
        <ele>89</ele>
        <time>2011-03-24T08:26:28Z</time>
      </trkpt>
      <trkpt lat="49.93646" lon="1.12152">
        <ele>90</ele>
        <time>2011-03-24T08:26:42Z</time>
      </trkpt>
      <trkpt lat="49.93651" lon="1.12219">
        <ele>90</ele>
        <time>2011-03-24T08:26:56Z</time>
      </trkpt>
      <trkpt lat="49.93651" lon="1.12279">
        <ele>91</ele>
        <time>2011-03-24T08:27:10Z</time>
      </trkpt>
      <trkpt lat="49.93658" lon="1.12358">
        <ele>91</ele>
        <time>2011-03-24T08:27:24Z</time>
      </trkpt>
      <trkpt lat="49.9368" lon="1.12431">
        <ele>91</ele>
        <time>2011-03-24T08:27:38Z</time>
      </trkpt>
      <trkpt lat="49.9369" lon="1.12432">
        <ele>91</ele>
        <time>2011-03-24T08:27:52Z</time>
      </trkpt>
      <trkpt lat="49.93698" lon="1.1244">
        <ele>93</ele>
        <time>2011-03-24T08:28:06Z</time>
      </trkpt>
      <trkpt lat="49.93702" lon="1.12461">
        <ele>92</ele>
        <time>2011-03-24T08:28:20Z</time>
      </trkpt>
      <trkpt lat="49.93711" lon="1.12515">
        <ele>94</ele>
        <time>2011-03-24T08:28:34Z</time>
      </trkpt>
      <trkpt lat="49.93719" lon="1.12572">
        <ele>93</ele>
        <time>2011-03-24T08:28:48Z</time>
      </trkpt>
      <trkpt lat="49.9373" lon="1.12632">
        <ele>94</ele>
        <time>2011-03-24T08:29:02Z</time>
      </trkpt>
      <trkpt lat="49.93755" lon="1.12707">
        <ele>94</ele>
        <time>2011-03-24T08:29:16Z</time>
      </trkpt>
      <trkpt lat="49.93779" lon="1.12755">
        <ele>94</ele>
        <time>2011-03-24T08:29:30Z</time>
      </trkpt>
      <trkpt lat="49.93807" lon="1.12793">
        <ele>96</ele>
        <time>2011-03-24T08:29:44Z</time>
      </trkpt>
      <trkpt lat="49.93841" lon="1.1281">
        <ele>97</ele>
        <time>2011-03-24T08:29:58Z</time>
      </trkpt>
      <trkpt lat="49.93849" lon="1.12817">
        <ele>97</ele>
        <time>2011-03-24T08:30:12Z</time>
      </trkpt>
      <trkpt lat="49.93849" lon="1.12817">
        <ele>97</ele>
        <time>2011-03-24T08:30:29Z</time>
      </trkpt>
      <trkpt lat="49.93881" lon="1.12895">
        <ele>97</ele>
        <time>2011-03-24T08:30:43Z</time>
      </trkpt>
      <trkpt lat="49.93881" lon="1.12968">
        <ele>100</ele>
        <time>2011-03-24T08:30:57Z</time>
      </trkpt>
      <trkpt lat="49.93884" lon="1.13033">
        <ele>101</ele>
        <time>2011-03-24T08:31:11Z</time>
      </trkpt>
      <trkpt lat="49.93894" lon="1.13098">
        <ele>102</ele>
        <time>2011-03-24T08:31:25Z</time>
      </trkpt>
      <trkpt lat="49.93902" lon="1.13167">
        <ele>102</ele>
        <time>2011-03-24T08:31:39Z</time>
      </trkpt>
      <trkpt lat="49.9392" lon="1.13241">
        <ele>103</ele>
        <time>2011-03-24T08:31:53Z</time>
      </trkpt>
      <trkpt lat="49.93935" lon="1.13316">
        <ele>103</ele>
        <time>2011-03-24T08:32:07Z</time>
      </trkpt>
      <trkpt lat="49.93944" lon="1.13396">
        <ele>104</ele>
        <time>2011-03-24T08:32:21Z</time>
      </trkpt>
      <trkpt lat="49.93948" lon="1.13472">
        <ele>105</ele>
        <time>2011-03-24T08:32:35Z</time>
      </trkpt>
      <trkpt lat="49.93958" lon="1.1354">
        <ele>105</ele>
        <time>2011-03-24T08:32:49Z</time>
      </trkpt>
      <trkpt lat="49.93965" lon="1.13609">
        <ele>106</ele>
        <time>2011-03-24T08:33:03Z</time>
      </trkpt>
      <trkpt lat="49.93964" lon="1.1367">
        <ele>107</ele>
        <time>2011-03-24T08:33:17Z</time>
      </trkpt>
      <trkpt lat="49.93964" lon="1.13735">
        <ele>108</ele>
        <time>2011-03-24T08:33:31Z</time>
      </trkpt>
      <trkpt lat="49.9396" lon="1.13796">
        <ele>109</ele>
        <time>2011-03-24T08:33:45Z</time>
      </trkpt>
      <trkpt lat="49.93943" lon="1.13852">
        <ele>109</ele>
        <time>2011-03-24T08:33:59Z</time>
      </trkpt>
      <trkpt lat="49.93935" lon="1.139">
        <ele>111</ele>
        <time>2011-03-24T08:34:13Z</time>
      </trkpt>
      <trkpt lat="49.93928" lon="1.13993">
        <ele>114</ele>
        <time>2011-03-24T08:34:27Z</time>
      </trkpt>
      <trkpt lat="49.93923" lon="1.14051">
        <ele>115</ele>
        <time>2011-03-24T08:34:41Z</time>
      </trkpt>
      <trkpt lat="49.93931" lon="1.14097">
        <ele>115</ele>
        <time>2011-03-24T08:34:55Z</time>
      </trkpt>
      <trkpt lat="49.93943" lon="1.14128">
        <ele>117</ele>
        <time>2011-03-24T08:35:09Z</time>
      </trkpt>
      <trkpt lat="49.93949" lon="1.14184">
        <ele>118</ele>
        <time>2011-03-24T08:35:23Z</time>
      </trkpt>
      <trkpt lat="49.93965" lon="1.14236">
        <ele>119</ele>
        <time>2011-03-24T08:35:37Z</time>
      </trkpt>
      <trkpt lat="49.93982" lon="1.14282">
        <ele>120</ele>
        <time>2011-03-24T08:35:51Z</time>
      </trkpt>
      <trkpt lat="49.93975" lon="1.14345">
        <ele>121</ele>
        <time>2011-03-24T08:36:05Z</time>
      </trkpt>
      <trkpt lat="49.9397" lon="1.14413">
        <ele>121</ele>
        <time>2011-03-24T08:36:19Z</time>
      </trkpt>
      <trkpt lat="49.93971" lon="1.14487">
        <ele>122</ele>
        <time>2011-03-24T08:36:33Z</time>
      </trkpt>
      <trkpt lat="49.93971" lon="1.14565">
        <ele>122</ele>
        <time>2011-03-24T08:36:47Z</time>
      </trkpt>
      <trkpt lat="49.93969" lon="1.14642">
        <ele>123</ele>
        <time>2011-03-24T08:37:01Z</time>
      </trkpt>
      <trkpt lat="49.93962" lon="1.14721">
        <ele>123</ele>
        <time>2011-03-24T08:37:15Z</time>
      </trkpt>
      <trkpt lat="49.93963" lon="1.14796">
        <ele>124</ele>
        <time>2011-03-24T08:37:29Z</time>
      </trkpt>
      <trkpt lat="49.93958" lon="1.14871">
        <ele>124</ele>
        <time>2011-03-24T08:37:43Z</time>
      </trkpt>
      <trkpt lat="49.93975" lon="1.1492">
        <ele>125</ele>
        <time>2011-03-24T08:37:57Z</time>
      </trkpt>
      <trkpt lat="49.94015" lon="1.14969">
        <ele>126</ele>
        <time>2011-03-24T08:38:11Z</time>
      </trkpt>
      <trkpt lat="49.9407" lon="1.14984">
        <ele>131</ele>
        <time>2011-03-24T08:38:25Z</time>
      </trkpt>
      <trkpt lat="49.94129" lon="1.14986">
        <ele>134</ele>
        <time>2011-03-24T08:38:39Z</time>
      </trkpt>
      <trkpt lat="49.94174" lon="1.14965">
        <ele>134</ele>
        <time>2011-03-24T08:38:53Z</time>
      </trkpt>
      <trkpt lat="49.94203" lon="1.14882">
        <ele>135</ele>
        <time>2011-03-24T08:39:07Z</time>
      </trkpt>
      <trkpt lat="49.94274" lon="1.14847">
        <ele>134</ele>
        <time>2011-03-24T08:39:21Z</time>
      </trkpt>
      <trkpt lat="49.94317" lon="1.14867">
        <ele>135</ele>
        <time>2011-03-24T08:39:35Z</time>
      </trkpt>
      <trkpt lat="49.94363" lon="1.14933">
        <ele>135</ele>
        <time>2011-03-24T08:39:49Z</time>
      </trkpt>
      <trkpt lat="49.94413" lon="1.15006">
        <ele>134</ele>
        <time>2011-03-24T08:40:03Z</time>
      </trkpt>
      <trkpt lat="49.9446" lon="1.1508">
        <ele>135</ele>
        <time>2011-03-24T08:40:17Z</time>
      </trkpt>
      <trkpt lat="49.94501" lon="1.15162">
        <ele>136</ele>
        <time>2011-03-24T08:40:31Z</time>
      </trkpt>
      <trkpt lat="49.9455" lon="1.15236">
        <ele>136</ele>
        <time>2011-03-24T08:40:45Z</time>
      </trkpt>
      <trkpt lat="49.94596" lon="1.15312">
        <ele>135</ele>
        <time>2011-03-24T08:40:59Z</time>
      </trkpt>
      <trkpt lat="49.9464" lon="1.1539">
        <ele>136</ele>
        <time>2011-03-24T08:41:13Z</time>
      </trkpt>
      <trkpt lat="49.94681" lon="1.15471">
        <ele>137</ele>
        <time>2011-03-24T08:41:27Z</time>
      </trkpt>
      <trkpt lat="49.94722" lon="1.15557">
        <ele>138</ele>
        <time>2011-03-24T08:41:41Z</time>
      </trkpt>
      <trkpt lat="49.94774" lon="1.15613">
        <ele>138</ele>
        <time>2011-03-24T08:41:55Z</time>
      </trkpt>
      <trkpt lat="49.94833" lon="1.1568">
        <ele>138</ele>
        <time>2011-03-24T08:42:09Z</time>
      </trkpt>
      <trkpt lat="49.94864" lon="1.15777">
        <ele>139</ele>
        <time>2011-03-24T08:42:23Z</time>
      </trkpt>
      <trkpt lat="49.94889" lon="1.15871">
        <ele>140</ele>
        <time>2011-03-24T08:42:37Z</time>
      </trkpt>
      <trkpt lat="49.9492" lon="1.15965">
        <ele>140</ele>
        <time>2011-03-24T08:42:51Z</time>
      </trkpt>
      <trkpt lat="49.94961" lon="1.16049">
        <ele>141</ele>
        <time>2011-03-24T08:43:05Z</time>
      </trkpt>
      <trkpt lat="49.95016" lon="1.16113">
        <ele>141</ele>
        <time>2011-03-24T08:43:19Z</time>
      </trkpt>
      <trkpt lat="49.95057" lon="1.16198">
        <ele>142</ele>
        <time>2011-03-24T08:43:33Z</time>
      </trkpt>
      <trkpt lat="49.9509" lon="1.16293">
        <ele>142</ele>
        <time>2011-03-24T08:43:47Z</time>
      </trkpt>
      <trkpt lat="49.95105" lon="1.16386">
        <ele>143</ele>
        <time>2011-03-24T08:44:01Z</time>
      </trkpt>
      <trkpt lat="49.95149" lon="1.16453">
        <ele>143</ele>
        <time>2011-03-24T08:44:15Z</time>
      </trkpt>
      <trkpt lat="49.95213" lon="1.16487">
        <ele>144</ele>
        <time>2011-03-24T08:44:29Z</time>
      </trkpt>
      <trkpt lat="49.95298" lon="1.16501">
        <ele>145</ele>
        <time>2011-03-24T08:44:43Z</time>
      </trkpt>
      <trkpt lat="49.9539" lon="1.16542">
        <ele>146</ele>
        <time>2011-03-24T08:44:57Z</time>
      </trkpt>
      <trkpt lat="49.95471" lon="1.16587">
        <ele>143</ele>
        <time>2011-03-24T08:45:11Z</time>
      </trkpt>
      <trkpt lat="49.95553" lon="1.16617">
        <ele>141</ele>
        <time>2011-03-24T08:45:25Z</time>
      </trkpt>
      <trkpt lat="49.95631" lon="1.16644">
        <ele>139</ele>
        <time>2011-03-24T08:45:39Z</time>
      </trkpt>
      <trkpt lat="49.95686" lon="1.16732">
        <ele>136</ele>
        <time>2011-03-24T08:45:53Z</time>
      </trkpt>
      <trkpt lat="49.9576" lon="1.16786">
        <ele>128</ele>
        <time>2011-03-24T08:46:07Z</time>
      </trkpt>
      <trkpt lat="49.95822" lon="1.16794">
        <ele>120</ele>
        <time>2011-03-24T08:46:21Z</time>
      </trkpt>
      <trkpt lat="49.9587" lon="1.1689">
        <ele>99</ele>
        <time>2011-03-24T08:46:35Z</time>
      </trkpt>
      <trkpt lat="49.95825" lon="1.16958">
        <ele>95</ele>
        <time>2011-03-24T08:46:49Z</time>
      </trkpt>
      <trkpt lat="49.95793" lon="1.17023">
        <ele>94</ele>
        <time>2011-03-24T08:47:03Z</time>
      </trkpt>
      <trkpt lat="49.95822" lon="1.16994">
        <ele>95</ele>
        <time>2011-03-24T08:47:17Z</time>
      </trkpt>
      <trkpt lat="49.95855" lon="1.16929">
        <ele>96</ele>
        <time>2011-03-24T08:47:31Z</time>
      </trkpt>
      <trkpt lat="49.95863" lon="1.16928">
        <ele>96</ele>
        <time>2011-03-24T08:48:13Z</time>
      </trkpt>
      <trkpt lat="49.95872" lon="1.16927">
        <ele>96</ele>
        <time>2011-03-24T08:48:27Z</time>
      </trkpt>
      <trkpt lat="49.95882" lon="1.16928">
        <ele>96</ele>
        <time>2011-03-24T08:48:41Z</time>
      </trkpt>
      <trkpt lat="49.95891" lon="1.16928">
        <ele>97</ele>
        <time>2011-03-24T08:48:55Z</time>
      </trkpt>
      <trkpt lat="49.95899" lon="1.16924">
        <ele>97</ele>
        <time>2011-03-24T08:49:11Z</time>
      </trkpt>
      <trkpt lat="49.95922" lon="1.1694">
        <ele>97</ele>
        <time>2011-03-24T08:49:25Z</time>
      </trkpt>
      <trkpt lat="49.95941" lon="1.16997">
        <ele>94</ele>
        <time>2011-03-24T08:49:39Z</time>
      </trkpt>
      <trkpt lat="49.95948" lon="1.17041">
        <ele>92</ele>
        <time>2011-03-24T08:49:53Z</time>
      </trkpt>
      <trkpt lat="49.95952" lon="1.17072">
        <ele>89</ele>
        <time>2011-03-24T08:50:07Z</time>
      </trkpt>
      <trkpt lat="49.95963" lon="1.17103">
        <ele>89</ele>
        <time>2011-03-24T08:50:21Z</time>
      </trkpt>
      <trkpt lat="49.95972" lon="1.17138">
        <ele>88</ele>
        <time>2011-03-24T08:50:35Z</time>
      </trkpt>
      <trkpt lat="49.95974" lon="1.17175">
        <ele>87</ele>
        <time>2011-03-24T08:50:49Z</time>
      </trkpt>
      <trkpt lat="49.95974" lon="1.17212">
        <ele>87</ele>
        <time>2011-03-24T08:51:03Z</time>
      </trkpt>
      <trkpt lat="49.9598" lon="1.17239">
        <ele>87</ele>
        <time>2011-03-24T08:51:17Z</time>
      </trkpt>
      <trkpt lat="49.95988" lon="1.17264">
        <ele>87</ele>
        <time>2011-03-24T08:51:31Z</time>
      </trkpt>
      <trkpt lat="49.95996" lon="1.17291">
        <ele>87</ele>
        <time>2011-03-24T08:51:45Z</time>
      </trkpt>
      <trkpt lat="49.96004" lon="1.17318">
        <ele>88</ele>
        <time>2011-03-24T08:51:59Z</time>
      </trkpt>
      <trkpt lat="49.9601" lon="1.17344">
        <ele>89</ele>
        <time>2011-03-24T08:52:13Z</time>
      </trkpt>
      <trkpt lat="49.96011" lon="1.17367">
        <ele>92</ele>
        <time>2011-03-24T08:52:27Z</time>
      </trkpt>
      <trkpt lat="49.96014" lon="1.17397">
        <ele>95</ele>
        <time>2011-03-24T08:52:41Z</time>
      </trkpt>
      <trkpt lat="49.9602" lon="1.17414">
        <ele>97</ele>
        <time>2011-03-24T08:52:55Z</time>
      </trkpt>
      <trkpt lat="49.96024" lon="1.17441">
        <ele>100</ele>
        <time>2011-03-24T08:53:09Z</time>
      </trkpt>
      <trkpt lat="49.96024" lon="1.17455">
        <ele>102</ele>
        <time>2011-03-24T08:53:23Z</time>
      </trkpt>
      <trkpt lat="49.96023" lon="1.17467">
        <ele>103</ele>
        <time>2011-03-24T08:53:45Z</time>
      </trkpt>
      <trkpt lat="49.96025" lon="1.17505">
        <ele>105</ele>
        <time>2011-03-24T08:53:59Z</time>
      </trkpt>
      <trkpt lat="49.96026" lon="1.17546">
        <ele>107</ele>
        <time>2011-03-24T08:54:13Z</time>
      </trkpt>
      <trkpt lat="49.9603" lon="1.17577">
        <ele>109</ele>
        <time>2011-03-24T08:54:27Z</time>
      </trkpt>
      <trkpt lat="49.96032" lon="1.17608">
        <ele>112</ele>
        <time>2011-03-24T08:54:41Z</time>
      </trkpt>
      <trkpt lat="49.96013" lon="1.17618">
        <ele>114</ele>
        <time>2011-03-24T08:54:55Z</time>
      </trkpt>
      <trkpt lat="49.9599" lon="1.17631">
        <ele>117</ele>
        <time>2011-03-24T08:55:09Z</time>
      </trkpt>
      <trkpt lat="49.95961" lon="1.1765">
        <ele>120</ele>
        <time>2011-03-24T08:55:23Z</time>
      </trkpt>
      <trkpt lat="49.95927" lon="1.17671">
        <ele>123</ele>
        <time>2011-03-24T08:55:37Z</time>
      </trkpt>
      <trkpt lat="49.95886" lon="1.17695">
        <ele>125</ele>
        <time>2011-03-24T08:55:51Z</time>
      </trkpt>
      <trkpt lat="49.95843" lon="1.1772">
        <ele>127</ele>
        <time>2011-03-24T08:56:05Z</time>
      </trkpt>
      <trkpt lat="49.95823" lon="1.17763">
        <ele>129</ele>
        <time>2011-03-24T08:56:19Z</time>
      </trkpt>
      <trkpt lat="49.95833" lon="1.17806">
        <ele>130</ele>
        <time>2011-03-24T08:56:33Z</time>
      </trkpt>
      <trkpt lat="49.95844" lon="1.17862">
        <ele>131</ele>
        <time>2011-03-24T08:56:47Z</time>
      </trkpt>
      <trkpt lat="49.95857" lon="1.17928">
        <ele>132</ele>
        <time>2011-03-24T08:57:01Z</time>
      </trkpt>
      <trkpt lat="49.9587" lon="1.17994">
        <ele>133</ele>
        <time>2011-03-24T08:57:15Z</time>
      </trkpt>
      <trkpt lat="49.95883" lon="1.18066">
        <ele>134</ele>
        <time>2011-03-24T08:57:29Z</time>
      </trkpt>
      <trkpt lat="49.95897" lon="1.18139">
        <ele>135</ele>
        <time>2011-03-24T08:57:43Z</time>
      </trkpt>
      <trkpt lat="49.9592" lon="1.18205">
        <ele>136</ele>
        <time>2011-03-24T08:57:57Z</time>
      </trkpt>
      <trkpt lat="49.95942" lon="1.18273">
        <ele>137</ele>
        <time>2011-03-24T08:58:11Z</time>
      </trkpt>
      <trkpt lat="49.95913" lon="1.18312">
        <ele>137</ele>
        <time>2011-03-24T08:58:25Z</time>
      </trkpt>
      <trkpt lat="49.95856" lon="1.1832">
        <ele>138</ele>
        <time>2011-03-24T08:58:39Z</time>
      </trkpt>
      <trkpt lat="49.95789" lon="1.18274">
        <ele>142</ele>
        <time>2011-03-24T08:58:53Z</time>
      </trkpt>
      <trkpt lat="49.95721" lon="1.18237">
        <ele>143</ele>
        <time>2011-03-24T08:59:07Z</time>
      </trkpt>
      <trkpt lat="49.9565" lon="1.18208">
        <ele>144</ele>
        <time>2011-03-24T08:59:21Z</time>
      </trkpt>
      <trkpt lat="49.95576" lon="1.18225">
        <ele>144</ele>
        <time>2011-03-24T08:59:35Z</time>
      </trkpt>
      <trkpt lat="49.95502" lon="1.18238">
        <ele>144</ele>
        <time>2011-03-24T08:59:49Z</time>
      </trkpt>
      <trkpt lat="49.95442" lon="1.1826">
        <ele>144</ele>
        <time>2011-03-24T09:00:03Z</time>
      </trkpt>
      <trkpt lat="49.95383" lon="1.18292">
        <ele>145</ele>
        <time>2011-03-24T09:00:17Z</time>
      </trkpt>
      <trkpt lat="49.95341" lon="1.18372">
        <ele>147</ele>
        <time>2011-03-24T09:00:31Z</time>
      </trkpt>
      <trkpt lat="49.95287" lon="1.18414">
        <ele>148</ele>
        <time>2011-03-24T09:00:45Z</time>
      </trkpt>
      <trkpt lat="49.9523" lon="1.18436">
        <ele>147</ele>
        <time>2011-03-24T09:00:59Z</time>
      </trkpt>
      <trkpt lat="49.95173" lon="1.18463">
        <ele>147</ele>
        <time>2011-03-24T09:01:13Z</time>
      </trkpt>
      <trkpt lat="49.95114" lon="1.18494">
        <ele>148</ele>
        <time>2011-03-24T09:01:27Z</time>
      </trkpt>
      <trkpt lat="49.95049" lon="1.18515">
        <ele>148</ele>
        <time>2011-03-24T09:01:41Z</time>
      </trkpt>
      <trkpt lat="49.9498" lon="1.18534">
        <ele>148</ele>
        <time>2011-03-24T09:01:55Z</time>
      </trkpt>
      <trkpt lat="49.94907" lon="1.18549">
        <ele>149</ele>
        <time>2011-03-24T09:02:09Z</time>
      </trkpt>
      <trkpt lat="49.94833" lon="1.18559">
        <ele>151</ele>
        <time>2011-03-24T09:02:23Z</time>
      </trkpt>
      <trkpt lat="49.94759" lon="1.18571">
        <ele>148</ele>
        <time>2011-03-24T09:02:37Z</time>
      </trkpt>
      <trkpt lat="49.94683" lon="1.18581">
        <ele>148</ele>
        <time>2011-03-24T09:02:51Z</time>
      </trkpt>
      <trkpt lat="49.94637" lon="1.18612">
        <ele>149</ele>
        <time>2011-03-24T09:03:05Z</time>
      </trkpt>
      <trkpt lat="49.94649" lon="1.1871">
        <ele>148</ele>
        <time>2011-03-24T09:03:19Z</time>
      </trkpt>
      <trkpt lat="49.9467" lon="1.18795">
        <ele>148</ele>
        <time>2011-03-24T09:03:33Z</time>
      </trkpt>
      <trkpt lat="49.94689" lon="1.18896">
        <ele>148</ele>
        <time>2011-03-24T09:03:47Z</time>
      </trkpt>
      <trkpt lat="49.94707" lon="1.18998">
        <ele>148</ele>
        <time>2011-03-24T09:04:01Z</time>
      </trkpt>
      <trkpt lat="49.94725" lon="1.19097">
        <ele>147</ele>
        <time>2011-03-24T09:04:15Z</time>
      </trkpt>
      <trkpt lat="49.94664" lon="1.19145">
        <ele>147</ele>
        <time>2011-03-24T09:04:29Z</time>
      </trkpt>
      <trkpt lat="49.94685" lon="1.19227">
        <ele>146</ele>
        <time>2011-03-24T09:04:43Z</time>
      </trkpt>
      <trkpt lat="49.94721" lon="1.19318">
        <ele>145</ele>
        <time>2011-03-24T09:04:57Z</time>
      </trkpt>
      <trkpt lat="49.94756" lon="1.19406">
        <ele>145</ele>
        <time>2011-03-24T09:05:11Z</time>
      </trkpt>
      <trkpt lat="49.94791" lon="1.19493">
        <ele>145</ele>
        <time>2011-03-24T09:05:25Z</time>
      </trkpt>
      <trkpt lat="49.94829" lon="1.1959">
        <ele>146</ele>
        <time>2011-03-24T09:05:39Z</time>
      </trkpt>
      <trkpt lat="49.94869" lon="1.19691">
        <ele>146</ele>
        <time>2011-03-24T09:05:53Z</time>
      </trkpt>
      <trkpt lat="49.94907" lon="1.19787">
        <ele>147</ele>
        <time>2011-03-24T09:06:07Z</time>
      </trkpt>
      <trkpt lat="49.94943" lon="1.19877">
        <ele>148</ele>
        <time>2011-03-24T09:06:21Z</time>
      </trkpt>
      <trkpt lat="49.9498" lon="1.1997">
        <ele>148</ele>
        <time>2011-03-24T09:06:35Z</time>
      </trkpt>
      <trkpt lat="49.95016" lon="1.20063">
        <ele>148</ele>
        <time>2011-03-24T09:06:49Z</time>
      </trkpt>
      <trkpt lat="49.95054" lon="1.20157">
        <ele>148</ele>
        <time>2011-03-24T09:07:03Z</time>
      </trkpt>
      <trkpt lat="49.95092" lon="1.20252">
        <ele>148</ele>
        <time>2011-03-24T09:07:17Z</time>
      </trkpt>
      <trkpt lat="49.9513" lon="1.20347">
        <ele>148</ele>
        <time>2011-03-24T09:07:31Z</time>
      </trkpt>
      <trkpt lat="49.95168" lon="1.20442">
        <ele>149</ele>
        <time>2011-03-24T09:07:45Z</time>
      </trkpt>
      <trkpt lat="49.95205" lon="1.20537">
        <ele>150</ele>
        <time>2011-03-24T09:07:59Z</time>
      </trkpt>
      <trkpt lat="49.95243" lon="1.20633">
        <ele>150</ele>
        <time>2011-03-24T09:08:13Z</time>
      </trkpt>
      <trkpt lat="49.95281" lon="1.20728">
        <ele>151</ele>
        <time>2011-03-24T09:08:27Z</time>
      </trkpt>
      <trkpt lat="49.95319" lon="1.20822">
        <ele>151</ele>
        <time>2011-03-24T09:08:41Z</time>
      </trkpt>
      <trkpt lat="49.95358" lon="1.20918">
        <ele>151</ele>
        <time>2011-03-24T09:08:55Z</time>
      </trkpt>
      <trkpt lat="49.95397" lon="1.21016">
        <ele>151</ele>
        <time>2011-03-24T09:09:09Z</time>
      </trkpt>
      <trkpt lat="49.95434" lon="1.21111">
        <ele>152</ele>
        <time>2011-03-24T09:09:23Z</time>
      </trkpt>
      <trkpt lat="49.95472" lon="1.21206">
        <ele>152</ele>
        <time>2011-03-24T09:09:37Z</time>
      </trkpt>
      <trkpt lat="49.9551" lon="1.21302">
        <ele>152</ele>
        <time>2011-03-24T09:09:51Z</time>
      </trkpt>
      <trkpt lat="49.95549" lon="1.21398">
        <ele>152</ele>
        <time>2011-03-24T09:10:05Z</time>
      </trkpt>
      <trkpt lat="49.95587" lon="1.21493">
        <ele>152</ele>
        <time>2011-03-24T09:10:19Z</time>
      </trkpt>
      <trkpt lat="49.95624" lon="1.21588">
        <ele>153</ele>
        <time>2011-03-24T09:10:33Z</time>
      </trkpt>
      <trkpt lat="49.95686" lon="1.21589">
        <ele>152</ele>
        <time>2011-03-24T09:10:47Z</time>
      </trkpt>
      <trkpt lat="49.95738" lon="1.21603">
        <ele>154</ele>
        <time>2011-03-24T09:11:01Z</time>
      </trkpt>
      <trkpt lat="49.95741" lon="1.21693">
        <ele>156</ele>
        <time>2011-03-24T09:11:15Z</time>
      </trkpt>
      <trkpt lat="49.95741" lon="1.21785">
        <ele>157</ele>
        <time>2011-03-24T09:11:29Z</time>
      </trkpt>
      <trkpt lat="49.95733" lon="1.21881">
        <ele>158</ele>
        <time>2011-03-24T09:11:44Z</time>
      </trkpt>
      <trkpt lat="49.95728" lon="1.21902">
        <ele>158</ele>
        <time>2011-03-24T09:11:58Z</time>
      </trkpt>
      <trkpt lat="49.9573" lon="1.21914">
        <ele>157</ele>
        <time>2011-03-24T09:13:45Z</time>
      </trkpt>
      <trkpt lat="49.95755" lon="1.21993">
        <ele>159</ele>
        <time>2011-03-24T09:13:59Z</time>
      </trkpt>
      <trkpt lat="49.95746" lon="1.22081">
        <ele>160</ele>
        <time>2011-03-24T09:14:13Z</time>
      </trkpt>
      <trkpt lat="49.9572" lon="1.22172">
        <ele>160</ele>
        <time>2011-03-24T09:14:27Z</time>
      </trkpt>
      <trkpt lat="49.95718" lon="1.22249">
        <ele>161</ele>
        <time>2011-03-24T09:14:41Z</time>
      </trkpt>
      <trkpt lat="49.95767" lon="1.22283">
        <ele>162</ele>
        <time>2011-03-24T09:14:55Z</time>
      </trkpt>
      <trkpt lat="49.95823" lon="1.22317">
        <ele>161</ele>
        <time>2011-03-24T09:15:09Z</time>
      </trkpt>
      <trkpt lat="49.95885" lon="1.22353">
        <ele>161</ele>
        <time>2011-03-24T09:15:23Z</time>
      </trkpt>
      <trkpt lat="49.9595" lon="1.22378">
        <ele>161</ele>
        <time>2011-03-24T09:15:37Z</time>
      </trkpt>
      <trkpt lat="49.96015" lon="1.22391">
        <ele>160</ele>
        <time>2011-03-24T09:15:51Z</time>
      </trkpt>
      <trkpt lat="49.96076" lon="1.22416">
        <ele>159</ele>
        <time>2011-03-24T09:16:05Z</time>
      </trkpt>
      <trkpt lat="49.9614" lon="1.2244">
        <ele>159</ele>
        <time>2011-03-24T09:16:19Z</time>
      </trkpt>
      <trkpt lat="49.96204" lon="1.22472">
        <ele>161</ele>
        <time>2011-03-24T09:16:33Z</time>
      </trkpt>
      <trkpt lat="49.96269" lon="1.22505">
        <ele>160</ele>
        <time>2011-03-24T09:16:47Z</time>
      </trkpt>
      <trkpt lat="49.96331" lon="1.22552">
        <ele>160</ele>
        <time>2011-03-24T09:17:01Z</time>
      </trkpt>
      <trkpt lat="49.96388" lon="1.22614">
        <ele>161</ele>
        <time>2011-03-24T09:17:15Z</time>
      </trkpt>
      <trkpt lat="49.96443" lon="1.22687">
        <ele>161</ele>
        <time>2011-03-24T09:17:29Z</time>
      </trkpt>
      <trkpt lat="49.96496" lon="1.22758">
        <ele>161</ele>
        <time>2011-03-24T09:17:43Z</time>
      </trkpt>
      <trkpt lat="49.9655" lon="1.2283">
        <ele>161</ele>
        <time>2011-03-24T09:17:57Z</time>
      </trkpt>
      <trkpt lat="49.9659" lon="1.22792">
        <ele>160</ele>
        <time>2011-03-24T09:18:11Z</time>
      </trkpt>
      <trkpt lat="49.9662" lon="1.22689">
        <ele>160</ele>
        <time>2011-03-24T09:18:25Z</time>
      </trkpt>
      <trkpt lat="49.96645" lon="1.22602">
        <ele>160</ele>
        <time>2011-03-24T09:18:39Z</time>
      </trkpt>
      <trkpt lat="49.96673" lon="1.22513">
        <ele>160</ele>
        <time>2011-03-24T09:18:53Z</time>
      </trkpt>
      <trkpt lat="49.96702" lon="1.22422">
        <ele>161</ele>
        <time>2011-03-24T09:19:07Z</time>
      </trkpt>
      <trkpt lat="49.96728" lon="1.22341">
        <ele>161</ele>
        <time>2011-03-24T09:19:21Z</time>
      </trkpt>
      <trkpt lat="49.9674" lon="1.22326">
        <ele>161</ele>
        <time>2011-03-24T09:19:35Z</time>
      </trkpt>
      <trkpt lat="49.96724" lon="1.22331">
        <ele>161</ele>
        <time>2011-03-24T09:19:49Z</time>
      </trkpt>
      <trkpt lat="49.96732" lon="1.22325">
        <ele>160</ele>
        <time>2011-03-24T09:21:39Z</time>
      </trkpt>
      <trkpt lat="49.96804" lon="1.2236">
        <ele>163</ele>
        <time>2011-03-24T09:21:53Z</time>
      </trkpt>
      <trkpt lat="49.96903" lon="1.22356">
        <ele>162</ele>
        <time>2011-03-24T09:22:07Z</time>
      </trkpt>
      <trkpt lat="49.96969" lon="1.2218">
        <ele>157</ele>
        <time>2011-03-24T09:22:21Z</time>
      </trkpt>
      <trkpt lat="49.9701" lon="1.21987">
        <ele>156</ele>
        <time>2011-03-24T09:22:35Z</time>
      </trkpt>
      <trkpt lat="49.97084" lon="1.21858">
        <ele>152</ele>
        <time>2011-03-24T09:22:49Z</time>
      </trkpt>
      <trkpt lat="49.97133" lon="1.21698">
        <ele>146</ele>
        <time>2011-03-24T09:23:03Z</time>
      </trkpt>
      <trkpt lat="49.97175" lon="1.21542">
        <ele>144</ele>
        <time>2011-03-24T09:23:17Z</time>
      </trkpt>
      <trkpt lat="49.97208" lon="1.21415">
        <ele>145</ele>
        <time>2011-03-24T09:23:31Z</time>
      </trkpt>
      <trkpt lat="49.97204" lon="1.21309">
        <ele>147</ele>
        <time>2011-03-24T09:23:45Z</time>
      </trkpt>
      <trkpt lat="49.97181" lon="1.21211">
        <ele>147</ele>
        <time>2011-03-24T09:23:59Z</time>
      </trkpt>
      <trkpt lat="49.97158" lon="1.2111">
        <ele>146</ele>
        <time>2011-03-24T09:24:13Z</time>
      </trkpt>
      <trkpt lat="49.97144" lon="1.21022">
        <ele>146</ele>
        <time>2011-03-24T09:24:27Z</time>
      </trkpt>
      <trkpt lat="49.97123" lon="1.2094">
        <ele>147</ele>
        <time>2011-03-24T09:24:41Z</time>
      </trkpt>
      <trkpt lat="49.97102" lon="1.20839">
        <ele>148</ele>
        <time>2011-03-24T09:24:55Z</time>
      </trkpt>
      <trkpt lat="49.97081" lon="1.20738">
        <ele>149</ele>
        <time>2011-03-24T09:25:09Z</time>
      </trkpt>
      <trkpt lat="49.97065" lon="1.20686">
        <ele>149</ele>
        <time>2011-03-24T09:25:23Z</time>
      </trkpt>
      <trkpt lat="49.97014" lon="1.20632">
        <ele>150</ele>
        <time>2011-03-24T09:25:37Z</time>
      </trkpt>
      <trkpt lat="49.96958" lon="1.20567">
        <ele>151</ele>
        <time>2011-03-24T09:25:51Z</time>
      </trkpt>
      <trkpt lat="49.96973" lon="1.20469">
        <ele>148</ele>
        <time>2011-03-24T09:26:05Z</time>
      </trkpt>
      <trkpt lat="49.97005" lon="1.20365">
        <ele>146</ele>
        <time>2011-03-24T09:26:19Z</time>
      </trkpt>
      <trkpt lat="49.97033" lon="1.20282">
        <ele>145</ele>
        <time>2011-03-24T09:26:33Z</time>
      </trkpt>
      <trkpt lat="49.9703" lon="1.20254">
        <ele>145</ele>
        <time>2011-03-24T09:26:47Z</time>
      </trkpt>
      <trkpt lat="49.97029" lon="1.20221">
        <ele>144</ele>
        <time>2011-03-24T09:27:01Z</time>
      </trkpt>
      <trkpt lat="49.9702" lon="1.20124">
        <ele>140</ele>
        <time>2011-03-24T09:27:15Z</time>
      </trkpt>
      <trkpt lat="49.97" lon="1.20024">
        <ele>129</ele>
        <time>2011-03-24T09:27:29Z</time>
      </trkpt>
      <trkpt lat="49.96965" lon="1.19903">
        <ele>117</ele>
        <time>2011-03-24T09:27:43Z</time>
      </trkpt>
      <trkpt lat="49.96957" lon="1.19883">
        <ele>111</ele>
        <time>2011-03-24T09:27:57Z</time>
      </trkpt>
      <trkpt lat="49.96944" lon="1.19848">
        <ele>101</ele>
        <time>2011-03-24T09:28:11Z</time>
      </trkpt>
      <trkpt lat="49.96929" lon="1.19831">
        <ele>98</ele>
        <time>2011-03-24T09:28:25Z</time>
      </trkpt>
      <trkpt lat="49.96918" lon="1.19835">
        <ele>96</ele>
        <time>2011-03-24T09:28:39Z</time>
      </trkpt>
      <trkpt lat="49.96911" lon="1.19839">
        <ele>94</ele>
        <time>2011-03-24T09:29:17Z</time>
      </trkpt>
      <trkpt lat="49.96888" lon="1.1982">
        <ele>91</ele>
        <time>2011-03-24T09:29:31Z</time>
      </trkpt>
      <trkpt lat="49.96883" lon="1.19808">
        <ele>86</ele>
        <time>2011-03-24T09:31:04Z</time>
      </trkpt>
      <trkpt lat="49.96897" lon="1.19736">
        <ele>84</ele>
        <time>2011-03-24T09:31:18Z</time>
      </trkpt>
      <trkpt lat="49.96899" lon="1.19719">
        <ele>81</ele>
        <time>2011-03-24T09:31:32Z</time>
      </trkpt>
      <trkpt lat="49.9689" lon="1.19715">
        <ele>72</ele>
        <time>2011-03-24T09:34:19Z</time>
      </trkpt>
      <trkpt lat="49.9687" lon="1.19743">
        <ele>69</ele>
        <time>2011-03-24T09:34:33Z</time>
      </trkpt>
      <trkpt lat="49.96855" lon="1.19769">
        <ele>68</ele>
        <time>2011-03-24T09:34:47Z</time>
      </trkpt>
      <trkpt lat="49.96846" lon="1.19801">
        <ele>67</ele>
        <time>2011-03-24T09:35:01Z</time>
      </trkpt>
      <trkpt lat="49.96841" lon="1.19834">
        <ele>67</ele>
        <time>2011-03-24T09:35:15Z</time>
      </trkpt>
      <trkpt lat="49.96835" lon="1.19864">
        <ele>68</ele>
        <time>2011-03-24T09:35:29Z</time>
      </trkpt>
      <trkpt lat="49.96828" lon="1.19874">
        <ele>70</ele>
        <time>2011-03-24T09:35:43Z</time>
      </trkpt>
      <trkpt lat="49.96807" lon="1.19867">
        <ele>72</ele>
        <time>2011-03-24T09:35:57Z</time>
      </trkpt>
      <trkpt lat="49.96786" lon="1.19859">
        <ele>73</ele>
        <time>2011-03-24T09:36:11Z</time>
      </trkpt>
      <trkpt lat="49.96763" lon="1.19848">
        <ele>75</ele>
        <time>2011-03-24T09:36:25Z</time>
      </trkpt>
      <trkpt lat="49.96738" lon="1.19838">
        <ele>78</ele>
        <time>2011-03-24T09:36:39Z</time>
      </trkpt>
      <trkpt lat="49.96725" lon="1.19811">
        <ele>80</ele>
        <time>2011-03-24T09:36:53Z</time>
      </trkpt>
      <trkpt lat="49.96719" lon="1.1973">
        <ele>87</ele>
        <time>2011-03-24T09:37:07Z</time>
      </trkpt>
      <trkpt lat="49.96704" lon="1.19662">
        <ele>88</ele>
        <time>2011-03-24T09:37:21Z</time>
      </trkpt>
      <trkpt lat="49.96679" lon="1.19607">
        <ele>88</ele>
        <time>2011-03-24T09:37:35Z</time>
      </trkpt>
      <trkpt lat="49.96653" lon="1.19542">
        <ele>89</ele>
        <time>2011-03-24T09:37:49Z</time>
      </trkpt>
      <trkpt lat="49.96626" lon="1.19479">
        <ele>89</ele>
        <time>2011-03-24T09:38:03Z</time>
      </trkpt>
      <trkpt lat="49.96629" lon="1.19424">
        <ele>89</ele>
        <time>2011-03-24T09:38:17Z</time>
      </trkpt>
      <trkpt lat="49.9664" lon="1.19385">
        <ele>89</ele>
        <time>2011-03-24T09:38:31Z</time>
      </trkpt>
      <trkpt lat="49.96622" lon="1.19357">
        <ele>90</ele>
        <time>2011-03-24T09:38:45Z</time>
      </trkpt>
      <trkpt lat="49.96598" lon="1.19334">
        <ele>91</ele>
        <time>2011-03-24T09:38:59Z</time>
      </trkpt>
      <trkpt lat="49.96569" lon="1.19309">
        <ele>92</ele>
        <time>2011-03-24T09:39:13Z</time>
      </trkpt>
      <trkpt lat="49.96542" lon="1.19288">
        <ele>93</ele>
        <time>2011-03-24T09:39:27Z</time>
      </trkpt>
      <trkpt lat="49.96515" lon="1.19272">
        <ele>94</ele>
        <time>2011-03-24T09:39:41Z</time>
      </trkpt>
      <trkpt lat="49.9648" lon="1.19258">
        <ele>95</ele>
        <time>2011-03-24T09:39:55Z</time>
      </trkpt>
      <trkpt lat="49.96439" lon="1.19244">
        <ele>96</ele>
        <time>2011-03-24T09:40:09Z</time>
      </trkpt>
      <trkpt lat="49.96395" lon="1.19226">
        <ele>100</ele>
        <time>2011-03-24T09:40:23Z</time>
      </trkpt>
      <trkpt lat="49.96365" lon="1.19218">
        <ele>102</ele>
        <time>2011-03-24T09:40:37Z</time>
      </trkpt>
      <trkpt lat="49.96332" lon="1.19196">
        <ele>104</ele>
        <time>2011-03-24T09:40:51Z</time>
      </trkpt>
      <trkpt lat="49.9629" lon="1.19188">
        <ele>106</ele>
        <time>2011-03-24T09:41:05Z</time>
      </trkpt>
      <trkpt lat="49.96255" lon="1.19173">
        <ele>108</ele>
        <time>2011-03-24T09:41:19Z</time>
      </trkpt>
      <trkpt lat="49.9622" lon="1.19154">
        <ele>110</ele>
        <time>2011-03-24T09:41:33Z</time>
      </trkpt>
      <trkpt lat="49.96186" lon="1.19136">
        <ele>113</ele>
        <time>2011-03-24T09:41:47Z</time>
      </trkpt>
      <trkpt lat="49.96156" lon="1.19109">
        <ele>116</ele>
        <time>2011-03-24T09:42:01Z</time>
      </trkpt>
      <trkpt lat="49.96129" lon="1.1907">
        <ele>121</ele>
        <time>2011-03-24T09:42:15Z</time>
      </trkpt>
      <trkpt lat="49.96091" lon="1.19022">
        <ele>126</ele>
        <time>2011-03-24T09:42:29Z</time>
      </trkpt>
      <trkpt lat="49.96053" lon="1.1897">
        <ele>130</ele>
        <time>2011-03-24T09:42:43Z</time>
      </trkpt>
      <trkpt lat="49.9602" lon="1.18923">
        <ele>133</ele>
        <time>2011-03-24T09:42:57Z</time>
      </trkpt>
      <trkpt lat="49.9599" lon="1.18879">
        <ele>136</ele>
        <time>2011-03-24T09:43:11Z</time>
      </trkpt>
      <trkpt lat="49.95956" lon="1.18826">
        <ele>138</ele>
        <time>2011-03-24T09:43:25Z</time>
      </trkpt>
      <trkpt lat="49.95915" lon="1.18773">
        <ele>140</ele>
        <time>2011-03-24T09:43:39Z</time>
      </trkpt>
      <trkpt lat="49.9586" lon="1.18738">
        <ele>144</ele>
        <time>2011-03-24T09:43:53Z</time>
      </trkpt>
      <trkpt lat="49.95814" lon="1.18723">
        <ele>144</ele>
        <time>2011-03-24T09:44:07Z</time>
      </trkpt>
      <trkpt lat="49.9576" lon="1.18725">
        <ele>145</ele>
        <time>2011-03-24T09:44:21Z</time>
      </trkpt>
      <trkpt lat="49.95704" lon="1.18732">
        <ele>146</ele>
        <time>2011-03-24T09:44:35Z</time>
      </trkpt>
      <trkpt lat="49.95647" lon="1.18741">
        <ele>146</ele>
        <time>2011-03-24T09:44:49Z</time>
      </trkpt>
      <trkpt lat="49.95583" lon="1.18731">
        <ele>147</ele>
        <time>2011-03-24T09:45:03Z</time>
      </trkpt>
      <trkpt lat="49.9553" lon="1.18734">
        <ele>145</ele>
        <time>2011-03-24T09:45:17Z</time>
      </trkpt>
      <trkpt lat="49.95504" lon="1.18676">
        <ele>144</ele>
        <time>2011-03-24T09:45:31Z</time>
      </trkpt>
      <trkpt lat="49.95496" lon="1.18607">
        <ele>145</ele>
        <time>2011-03-24T09:45:45Z</time>
      </trkpt>
      <trkpt lat="49.95486" lon="1.18504">
        <ele>148</ele>
        <time>2011-03-24T09:45:59Z</time>
      </trkpt>
      <trkpt lat="49.95471" lon="1.1839">
        <ele>146</ele>
        <time>2011-03-24T09:46:13Z</time>
      </trkpt>
      <trkpt lat="49.95452" lon="1.18273">
        <ele>144</ele>
        <time>2011-03-24T09:46:27Z</time>
      </trkpt>
      <trkpt lat="49.95383" lon="1.183">
        <ele>149</ele>
        <time>2011-03-24T09:46:41Z</time>
      </trkpt>
      <trkpt lat="49.95335" lon="1.18375">
        <ele>148</ele>
        <time>2011-03-24T09:46:55Z</time>
      </trkpt>
      <trkpt lat="49.95278" lon="1.18416">
        <ele>148</ele>
        <time>2011-03-24T09:47:09Z</time>
      </trkpt>
      <trkpt lat="49.95217" lon="1.18438">
        <ele>151</ele>
        <time>2011-03-24T09:47:23Z</time>
      </trkpt>
      <trkpt lat="49.95156" lon="1.18472">
        <ele>152</ele>
        <time>2011-03-24T09:47:37Z</time>
      </trkpt>
      <trkpt lat="49.9509" lon="1.18507">
        <ele>154</ele>
        <time>2011-03-24T09:47:51Z</time>
      </trkpt>
      <trkpt lat="49.95017" lon="1.18528">
        <ele>155</ele>
        <time>2011-03-24T09:48:05Z</time>
      </trkpt>
      <trkpt lat="49.9494" lon="1.18547">
        <ele>155</ele>
        <time>2011-03-24T09:48:19Z</time>
      </trkpt>
      <trkpt lat="49.94863" lon="1.18557">
        <ele>154</ele>
        <time>2011-03-24T09:48:33Z</time>
      </trkpt>
      <trkpt lat="49.94779" lon="1.18569">
        <ele>155</ele>
        <time>2011-03-24T09:48:47Z</time>
      </trkpt>
      <trkpt lat="49.94696" lon="1.1858">
        <ele>154</ele>
        <time>2011-03-24T09:49:01Z</time>
      </trkpt>
      <trkpt lat="49.94638" lon="1.18603">
        <ele>153</ele>
        <time>2011-03-24T09:49:15Z</time>
      </trkpt>
      <trkpt lat="49.94648" lon="1.18705">
        <ele>152</ele>
        <time>2011-03-24T09:49:29Z</time>
      </trkpt>
      <trkpt lat="49.94669" lon="1.18799">
        <ele>152</ele>
        <time>2011-03-24T09:49:43Z</time>
      </trkpt>
      <trkpt lat="49.94689" lon="1.18912">
        <ele>152</ele>
        <time>2011-03-24T09:49:57Z</time>
      </trkpt>
      <trkpt lat="49.94712" lon="1.19031">
        <ele>152</ele>
        <time>2011-03-24T09:50:11Z</time>
      </trkpt>
      <trkpt lat="49.94695" lon="1.19124">
        <ele>152</ele>
        <time>2011-03-24T09:50:25Z</time>
      </trkpt>
      <trkpt lat="49.94615" lon="1.19165">
        <ele>153</ele>
        <time>2011-03-24T09:50:39Z</time>
      </trkpt>
      <trkpt lat="49.94541" lon="1.19213">
        <ele>153</ele>
        <time>2011-03-24T09:50:53Z</time>
      </trkpt>
      <trkpt lat="49.94474" lon="1.19264">
        <ele>152</ele>
        <time>2011-03-24T09:51:07Z</time>
      </trkpt>
      <trkpt lat="49.94398" lon="1.19305">
        <ele>152</ele>
        <time>2011-03-24T09:51:21Z</time>
      </trkpt>
      <trkpt lat="49.94322" lon="1.19346">
        <ele>150</ele>
        <time>2011-03-24T09:51:35Z</time>
      </trkpt>
      <trkpt lat="49.94245" lon="1.19372">
        <ele>150</ele>
        <time>2011-03-24T09:51:49Z</time>
      </trkpt>
      <trkpt lat="49.94182" lon="1.1941">
        <ele>149</ele>
        <time>2011-03-24T09:52:03Z</time>
      </trkpt>
      <trkpt lat="49.94174" lon="1.19414">
        <ele>149</ele>
        <time>2011-03-24T09:52:35Z</time>
      </trkpt>
      <trkpt lat="49.94132" lon="1.19454">
        <ele>144</ele>
        <time>2011-03-24T09:52:49Z</time>
      </trkpt>
      <trkpt lat="49.94078" lon="1.19502">
        <ele>144</ele>
        <time>2011-03-24T09:53:03Z</time>
      </trkpt>
      <trkpt lat="49.94022" lon="1.19549">
        <ele>145</ele>
        <time>2011-03-24T09:53:17Z</time>
      </trkpt>
      <trkpt lat="49.93962" lon="1.19597">
        <ele>147</ele>
        <time>2011-03-24T09:53:31Z</time>
      </trkpt>
      <trkpt lat="49.93899" lon="1.19656">
        <ele>149</ele>
        <time>2011-03-24T09:53:45Z</time>
      </trkpt>
      <trkpt lat="49.93831" lon="1.19717">
        <ele>151</ele>
        <time>2011-03-24T09:53:59Z</time>
      </trkpt>
      <trkpt lat="49.93759" lon="1.1978">
        <ele>152</ele>
        <time>2011-03-24T09:54:13Z</time>
      </trkpt>
      <trkpt lat="49.93703" lon="1.19826">
        <ele>153</ele>
        <time>2011-03-24T09:54:27Z</time>
      </trkpt>
      <trkpt lat="49.93661" lon="1.19859">
        <ele>153</ele>
        <time>2011-03-24T09:54:41Z</time>
      </trkpt>
      <trkpt lat="49.93614" lon="1.19897">
        <ele>154</ele>
        <time>2011-03-24T09:54:55Z</time>
      </trkpt>
      <trkpt lat="49.93565" lon="1.19943">
        <ele>154</ele>
        <time>2011-03-24T09:55:09Z</time>
      </trkpt>
      <trkpt lat="49.93494" lon="1.20004">
        <ele>150</ele>
        <time>2011-03-24T09:55:23Z</time>
      </trkpt>
      <trkpt lat="49.93408" lon="1.20069">
        <ele>138</ele>
        <time>2011-03-24T09:55:37Z</time>
      </trkpt>
      <trkpt lat="49.93362" lon="1.20109">
        <ele>138</ele>
        <time>2011-03-24T09:55:51Z</time>
      </trkpt>
      <trkpt lat="49.93309" lon="1.20031">
        <ele>140</ele>
        <time>2011-03-24T09:56:05Z</time>
      </trkpt>
      <trkpt lat="49.93265" lon="1.1991">
        <ele>143</ele>
        <time>2011-03-24T09:56:19Z</time>
      </trkpt>
      <trkpt lat="49.93223" lon="1.1978">
        <ele>143</ele>
        <time>2011-03-24T09:56:33Z</time>
      </trkpt>
      <trkpt lat="49.93164" lon="1.19642">
        <ele>146</ele>
        <time>2011-03-24T09:56:47Z</time>
      </trkpt>
      <trkpt lat="49.93015" lon="1.19541">
        <ele>147</ele>
        <time>2011-03-24T09:57:01Z</time>
      </trkpt>
      <trkpt lat="49.92978" lon="1.19574">
        <ele>138</ele>
        <time>2011-03-24T09:57:15Z</time>
      </trkpt>
      <trkpt lat="49.92998" lon="1.19635">
        <ele>129</ele>
        <time>2011-03-24T09:57:29Z</time>
      </trkpt>
      <trkpt lat="49.93014" lon="1.19701">
        <ele>109</ele>
        <time>2011-03-24T09:57:43Z</time>
      </trkpt>
      <trkpt lat="49.93" lon="1.19777">
        <ele>106</ele>
        <time>2011-03-24T09:57:58Z</time>
      </trkpt>
      <trkpt lat="49.92984" lon="1.19833">
        <ele>104</ele>
        <time>2011-03-24T09:58:12Z</time>
      </trkpt>
      <trkpt lat="49.92962" lon="1.19877">
        <ele>103</ele>
        <time>2011-03-24T09:58:26Z</time>
      </trkpt>
      <trkpt lat="49.9294" lon="1.19912">
        <ele>102</ele>
        <time>2011-03-24T09:58:40Z</time>
      </trkpt>
      <trkpt lat="49.92918" lon="1.19937">
        <ele>102</ele>
        <time>2011-03-24T09:58:54Z</time>
      </trkpt>
      <trkpt lat="49.92895" lon="1.19957">
        <ele>102</ele>
        <time>2011-03-24T09:59:08Z</time>
      </trkpt>
      <trkpt lat="49.92871" lon="1.19975">
        <ele>102</ele>
        <time>2011-03-24T09:59:22Z</time>
      </trkpt>
      <trkpt lat="49.92851" lon="1.19991">
        <ele>102</ele>
        <time>2011-03-24T09:59:36Z</time>
      </trkpt>
      <trkpt lat="49.92833" lon="1.20013">
        <ele>102</ele>
        <time>2011-03-24T09:59:50Z</time>
      </trkpt>
      <trkpt lat="49.92817" lon="1.2004">
        <ele>102</ele>
        <time>2011-03-24T10:00:04Z</time>
      </trkpt>
      <trkpt lat="49.92802" lon="1.20066">
        <ele>102</ele>
        <time>2011-03-24T10:00:18Z</time>
      </trkpt>
      <trkpt lat="49.9279" lon="1.20103">
        <ele>103</ele>
        <time>2011-03-24T10:00:32Z</time>
      </trkpt>
      <trkpt lat="49.92763" lon="1.20127">
        <ele>104</ele>
        <time>2011-03-24T10:00:46Z</time>
      </trkpt>
      <trkpt lat="49.9274" lon="1.20142">
        <ele>104</ele>
        <time>2011-03-24T10:01:00Z</time>
      </trkpt>
      <trkpt lat="49.92717" lon="1.20163">
        <ele>105</ele>
        <time>2011-03-24T10:01:14Z</time>
      </trkpt>
      <trkpt lat="49.92696" lon="1.20189">
        <ele>107</ele>
        <time>2011-03-24T10:01:28Z</time>
      </trkpt>
      <trkpt lat="49.92679" lon="1.20221">
        <ele>107</ele>
        <time>2011-03-24T10:01:42Z</time>
      </trkpt>
      <trkpt lat="49.92662" lon="1.20243">
        <ele>108</ele>
        <time>2011-03-24T10:01:56Z</time>
      </trkpt>
      <trkpt lat="49.92641" lon="1.20262">
        <ele>108</ele>
        <time>2011-03-24T10:02:10Z</time>
      </trkpt>
      <trkpt lat="49.92616" lon="1.20279">
        <ele>108</ele>
        <time>2011-03-24T10:02:24Z</time>
      </trkpt>
      <trkpt lat="49.92596" lon="1.203">
        <ele>111</ele>
        <time>2011-03-24T10:02:38Z</time>
      </trkpt>
      <trkpt lat="49.92569" lon="1.20309">
        <ele>114</ele>
        <time>2011-03-24T10:02:52Z</time>
      </trkpt>
      <trkpt lat="49.92554" lon="1.20298">
        <ele>119</ele>
        <time>2011-03-24T10:03:06Z</time>
      </trkpt>
      <trkpt lat="49.92522" lon="1.20314">
        <ele>123</ele>
        <time>2011-03-24T10:03:20Z</time>
      </trkpt>
      <trkpt lat="49.92487" lon="1.20337">
        <ele>126</ele>
        <time>2011-03-24T10:03:34Z</time>
      </trkpt>
      <trkpt lat="49.92447" lon="1.20333">
        <ele>129</ele>
        <time>2011-03-24T10:03:48Z</time>
      </trkpt>
      <trkpt lat="49.92401" lon="1.20312">
        <ele>132</ele>
        <time>2011-03-24T10:04:02Z</time>
      </trkpt>
      <trkpt lat="49.92353" lon="1.20286">
        <ele>135</ele>
        <time>2011-03-24T10:04:16Z</time>
      </trkpt>
      <trkpt lat="49.92301" lon="1.20253">
        <ele>145</ele>
        <time>2011-03-24T10:04:30Z</time>
      </trkpt>
      <trkpt lat="49.92242" lon="1.20222">
        <ele>148</ele>
        <time>2011-03-24T10:04:44Z</time>
      </trkpt>
      <trkpt lat="49.92174" lon="1.20194">
        <ele>149</ele>
        <time>2011-03-24T10:04:58Z</time>
      </trkpt>
      <trkpt lat="49.92104" lon="1.20161">
        <ele>151</ele>
        <time>2011-03-24T10:05:12Z</time>
      </trkpt>
      <trkpt lat="49.92039" lon="1.20149">
        <ele>151</ele>
        <time>2011-03-24T10:05:26Z</time>
      </trkpt>
      <trkpt lat="49.91975" lon="1.20143">
        <ele>152</ele>
        <time>2011-03-24T10:05:40Z</time>
      </trkpt>
      <trkpt lat="49.9192" lon="1.20147">
        <ele>150</ele>
        <time>2011-03-24T10:05:54Z</time>
      </trkpt>
      <trkpt lat="49.91864" lon="1.20156">
        <ele>150</ele>
        <time>2011-03-24T10:06:08Z</time>
      </trkpt>
      <trkpt lat="49.91808" lon="1.20161">
        <ele>150</ele>
        <time>2011-03-24T10:06:22Z</time>
      </trkpt>
      <trkpt lat="49.91784" lon="1.20136">
        <ele>150</ele>
        <time>2011-03-24T10:06:36Z</time>
      </trkpt>
      <trkpt lat="49.91746" lon="1.20089">
        <ele>151</ele>
        <time>2011-03-24T10:06:50Z</time>
      </trkpt>
      <trkpt lat="49.9167" lon="1.20085">
        <ele>154</ele>
        <time>2011-03-24T10:07:04Z</time>
      </trkpt>
      <trkpt lat="49.91601" lon="1.20088">
        <ele>157</ele>
        <time>2011-03-24T10:07:18Z</time>
      </trkpt>
      <trkpt lat="49.91521" lon="1.20086">
        <ele>157</ele>
        <time>2011-03-24T10:07:32Z</time>
      </trkpt>
      <trkpt lat="49.91437" lon="1.20132">
        <ele>159</ele>
        <time>2011-03-24T10:07:46Z</time>
      </trkpt>
      <trkpt lat="49.91397" lon="1.20142">
        <ele>147</ele>
        <time>2011-03-24T10:08:00Z</time>
      </trkpt>
      <trkpt lat="49.91368" lon="1.19927">
        <ele>142</ele>
        <time>2011-03-24T10:08:14Z</time>
      </trkpt>
      <trkpt lat="49.91321" lon="1.19899">
        <ele>127</ele>
        <time>2011-03-24T10:08:28Z</time>
      </trkpt>
      <trkpt lat="49.91251" lon="1.20081">
        <ele>116</ele>
        <time>2011-03-24T10:08:42Z</time>
      </trkpt>
      <trkpt lat="49.91169" lon="1.20085">
        <ele>107</ele>
        <time>2011-03-24T10:08:56Z</time>
      </trkpt>
      <trkpt lat="49.9111" lon="1.20187">
        <ele>99</ele>
        <time>2011-03-24T10:09:10Z</time>
      </trkpt>
      <trkpt lat="49.91089" lon="1.20217">
        <ele>96</ele>
        <time>2011-03-24T10:09:24Z</time>
      </trkpt>
      <trkpt lat="49.91033" lon="1.20256">
        <ele>88</ele>
        <time>2011-03-24T10:09:38Z</time>
      </trkpt>
      <trkpt lat="49.90944" lon="1.20159">
        <ele>83</ele>
        <time>2011-03-24T10:09:52Z</time>
      </trkpt>
      <trkpt lat="49.90859" lon="1.20092">
        <ele>78</ele>
        <time>2011-03-24T10:10:06Z</time>
      </trkpt>
      <trkpt lat="49.90771" lon="1.2002">
        <ele>69</ele>
        <time>2011-03-24T10:10:20Z</time>
      </trkpt>
      <trkpt lat="49.907" lon="1.19955">
        <ele>67</ele>
        <time>2011-03-24T10:10:34Z</time>
      </trkpt>
      <trkpt lat="49.90635" lon="1.19897">
        <ele>66</ele>
        <time>2011-03-24T10:10:48Z</time>
      </trkpt>
      <trkpt lat="49.90578" lon="1.19818">
        <ele>66</ele>
        <time>2011-03-24T10:11:02Z</time>
      </trkpt>
      <trkpt lat="49.90521" lon="1.19775">
        <ele>66</ele>
        <time>2011-03-24T10:11:16Z</time>
      </trkpt>
      <trkpt lat="49.90472" lon="1.19738">
        <ele>67</ele>
        <time>2011-03-24T10:11:30Z</time>
      </trkpt>
      <trkpt lat="49.90472" lon="1.19693">
        <ele>67</ele>
        <time>2011-03-24T10:11:44Z</time>
      </trkpt>
      <trkpt lat="49.90491" lon="1.19636">
        <ele>68</ele>
        <time>2011-03-24T10:11:58Z</time>
      </trkpt>
      <trkpt lat="49.90496" lon="1.19581">
        <ele>69</ele>
        <time>2011-03-24T10:12:12Z</time>
      </trkpt>
      <trkpt lat="49.90493" lon="1.19531">
        <ele>70</ele>
        <time>2011-03-24T10:12:26Z</time>
      </trkpt>
      <trkpt lat="49.90485" lon="1.19486">
        <ele>72</ele>
        <time>2011-03-24T10:12:40Z</time>
      </trkpt>
      <trkpt lat="49.90477" lon="1.19409">
        <ele>75</ele>
        <time>2011-03-24T10:12:54Z</time>
      </trkpt>
      <trkpt lat="49.90488" lon="1.19334">
        <ele>78</ele>
        <time>2011-03-24T10:13:08Z</time>
      </trkpt>
      <trkpt lat="49.90512" lon="1.19188">
        <ele>76</ele>
        <time>2011-03-24T10:13:22Z</time>
      </trkpt>
      <trkpt lat="49.90495" lon="1.19044">
        <ele>73</ele>
        <time>2011-03-24T10:13:36Z</time>
      </trkpt>
      <trkpt lat="49.90524" lon="1.18907">
        <ele>70</ele>
        <time>2011-03-24T10:13:50Z</time>
      </trkpt>
      <trkpt lat="49.90514" lon="1.18887">
        <ele>71</ele>
        <time>2011-03-24T10:14:04Z</time>
      </trkpt>
      <trkpt lat="49.90485" lon="1.18877">
        <ele>71</ele>
        <time>2011-03-24T10:14:18Z</time>
      </trkpt>
      <trkpt lat="49.90467" lon="1.18845">
        <ele>71</ele>
        <time>2011-03-24T10:14:32Z</time>
      </trkpt>
      <trkpt lat="49.90458" lon="1.18796">
        <ele>71</ele>
        <time>2011-03-24T10:14:46Z</time>
      </trkpt>
      <trkpt lat="49.90451" lon="1.18745">
        <ele>71</ele>
        <time>2011-03-24T10:15:00Z</time>
      </trkpt>
      <trkpt lat="49.90445" lon="1.18701">
        <ele>71</ele>
        <time>2011-03-24T10:15:14Z</time>
      </trkpt>
      <trkpt lat="49.90428" lon="1.18632">
        <ele>74</ele>
        <time>2011-03-24T10:15:28Z</time>
      </trkpt>
      <trkpt lat="49.90408" lon="1.18556">
        <ele>75</ele>
        <time>2011-03-24T10:15:42Z</time>
      </trkpt>
      <trkpt lat="49.90396" lon="1.18491">
        <ele>75</ele>
        <time>2011-03-24T10:15:56Z</time>
      </trkpt>
      <trkpt lat="49.90383" lon="1.18417">
        <ele>76</ele>
        <time>2011-03-24T10:16:10Z</time>
      </trkpt>
      <trkpt lat="49.90373" lon="1.18346">
        <ele>76</ele>
        <time>2011-03-24T10:16:24Z</time>
      </trkpt>
      <trkpt lat="49.90369" lon="1.18267">
        <ele>77</ele>
        <time>2011-03-24T10:16:38Z</time>
      </trkpt>
      <trkpt lat="49.90364" lon="1.18171">
        <ele>77</ele>
        <time>2011-03-24T10:16:52Z</time>
      </trkpt>
      <trkpt lat="49.90353" lon="1.1809">
        <ele>76</ele>
        <time>2011-03-24T10:17:06Z</time>
      </trkpt>
      <trkpt lat="49.90335" lon="1.18018">
        <ele>76</ele>
        <time>2011-03-24T10:17:20Z</time>
      </trkpt>
      <trkpt lat="49.90331" lon="1.17912">
        <ele>76</ele>
        <time>2011-03-24T10:17:34Z</time>
      </trkpt>
      <trkpt lat="49.9032" lon="1.17803">
        <ele>75</ele>
        <time>2011-03-24T10:17:48Z</time>
      </trkpt>
      <trkpt lat="49.90303" lon="1.17709">
        <ele>75</ele>
        <time>2011-03-24T10:18:02Z</time>
      </trkpt>
      <trkpt lat="49.90291" lon="1.17608">
        <ele>75</ele>
        <time>2011-03-24T10:18:16Z</time>
      </trkpt>
      <trkpt lat="49.90281" lon="1.17515">
        <ele>74</ele>
        <time>2011-03-24T10:18:30Z</time>
      </trkpt>
      <trkpt lat="49.90279" lon="1.17436">
        <ele>75</ele>
        <time>2011-03-24T10:18:44Z</time>
      </trkpt>
      <trkpt lat="49.90372" lon="1.17409">
        <ele>70</ele>
        <time>2011-03-24T10:18:58Z</time>
      </trkpt>
      <trkpt lat="49.90408" lon="1.17348">
        <ele>65</ele>
        <time>2011-03-24T10:19:12Z</time>
      </trkpt>
      <trkpt lat="49.90397" lon="1.17255">
        <ele>65</ele>
        <time>2011-03-24T10:19:26Z</time>
      </trkpt>
      <trkpt lat="49.90385" lon="1.1716">
        <ele>64</ele>
        <time>2011-03-24T10:19:40Z</time>
      </trkpt>
      <trkpt lat="49.90355" lon="1.1705">
        <ele>64</ele>
        <time>2011-03-24T10:19:54Z</time>
      </trkpt>
      <trkpt lat="49.90315" lon="1.16913">
        <ele>66</ele>
        <time>2011-03-24T10:20:08Z</time>
      </trkpt>
      <trkpt lat="49.90277" lon="1.16779">
        <ele>64</ele>
        <time>2011-03-24T10:20:22Z</time>
      </trkpt>
      <trkpt lat="49.90244" lon="1.16672">
        <ele>62</ele>
        <time>2011-03-24T10:20:36Z</time>
      </trkpt>
      <trkpt lat="49.90207" lon="1.16559">
        <ele>60</ele>
        <time>2011-03-24T10:20:50Z</time>
      </trkpt>
      <trkpt lat="49.90173" lon="1.16436">
        <ele>61</ele>
        <time>2011-03-24T10:21:04Z</time>
      </trkpt>
      <trkpt lat="49.90199" lon="1.16347">
        <ele>60</ele>
        <time>2011-03-24T10:21:18Z</time>
      </trkpt>
      <trkpt lat="49.90199" lon="1.1628">
        <ele>60</ele>
        <time>2011-03-24T10:21:32Z</time>
      </trkpt>
      <trkpt lat="49.90188" lon="1.1617">
        <ele>60</ele>
        <time>2011-03-24T10:21:46Z</time>
      </trkpt>
      <trkpt lat="49.9018" lon="1.1606">
        <ele>61</ele>
        <time>2011-03-24T10:22:00Z</time>
      </trkpt>
      <trkpt lat="49.90187" lon="1.15943">
        <ele>64</ele>
        <time>2011-03-24T10:22:14Z</time>
      </trkpt>
      <trkpt lat="49.90171" lon="1.15854">
        <ele>63</ele>
        <time>2011-03-24T10:22:28Z</time>
      </trkpt>
      <trkpt lat="49.90146" lon="1.15782">
        <ele>64</ele>
        <time>2011-03-24T10:22:42Z</time>
      </trkpt>
      <trkpt lat="49.90125" lon="1.15674">
        <ele>60</ele>
        <time>2011-03-24T10:22:56Z</time>
      </trkpt>
      <trkpt lat="49.90089" lon="1.15546">
        <ele>58</ele>
        <time>2011-03-24T10:23:10Z</time>
      </trkpt>
      <trkpt lat="49.90053" lon="1.15417">
        <ele>57</ele>
        <time>2011-03-24T10:23:24Z</time>
      </trkpt>
      <trkpt lat="49.90022" lon="1.15291">
        <ele>56</ele>
        <time>2011-03-24T10:23:38Z</time>
      </trkpt>
      <trkpt lat="49.89988" lon="1.15163">
        <ele>55</ele>
        <time>2011-03-24T10:23:52Z</time>
      </trkpt>
      <trkpt lat="49.89951" lon="1.15034">
        <ele>55</ele>
        <time>2011-03-24T10:24:06Z</time>
      </trkpt>
      <trkpt lat="49.89911" lon="1.14909">
        <ele>55</ele>
        <time>2011-03-24T10:24:20Z</time>
      </trkpt>
      <trkpt lat="49.89866" lon="1.14794">
        <ele>55</ele>
        <time>2011-03-24T10:24:34Z</time>
      </trkpt>
      <trkpt lat="49.89818" lon="1.14685">
        <ele>54</ele>
        <time>2011-03-24T10:24:48Z</time>
      </trkpt>
      <trkpt lat="49.89789" lon="1.14605">
        <ele>55</ele>
        <time>2011-03-24T10:25:02Z</time>
      </trkpt>
      <trkpt lat="49.89833" lon="1.1451">
        <ele>57</ele>
        <time>2011-03-24T10:25:16Z</time>
      </trkpt>
      <trkpt lat="49.89883" lon="1.14429">
        <ele>54</ele>
        <time>2011-03-24T10:25:30Z</time>
      </trkpt>
      <trkpt lat="49.89928" lon="1.14352">
        <ele>54</ele>
        <time>2011-03-24T10:25:44Z</time>
      </trkpt>
      <trkpt lat="49.89969" lon="1.14254">
        <ele>53</ele>
        <time>2011-03-24T10:25:58Z</time>
      </trkpt>
      <trkpt lat="49.9001" lon="1.14177">
        <ele>54</ele>
        <time>2011-03-24T10:26:12Z</time>
      </trkpt>
      <trkpt lat="49.90061" lon="1.14153">
        <ele>55</ele>
        <time>2011-03-24T10:26:26Z</time>
      </trkpt>
      <trkpt lat="49.90094" lon="1.14082">
        <ele>55</ele>
        <time>2011-03-24T10:26:40Z</time>
      </trkpt>
      <trkpt lat="49.90111" lon="1.13977">
        <ele>55</ele>
        <time>2011-03-24T10:26:54Z</time>
      </trkpt>
      <trkpt lat="49.90121" lon="1.13859">
        <ele>55</ele>
        <time>2011-03-24T10:27:08Z</time>
      </trkpt>
      <trkpt lat="49.90144" lon="1.13769">
        <ele>55</ele>
        <time>2011-03-24T10:27:22Z</time>
      </trkpt>
      <trkpt lat="49.90138" lon="1.13638">
        <ele>52</ele>
        <time>2011-03-24T10:27:36Z</time>
      </trkpt>
      <trkpt lat="49.90135" lon="1.13512">
        <ele>51</ele>
        <time>2011-03-24T10:27:50Z</time>
      </trkpt>
      <trkpt lat="49.90123" lon="1.13395">
        <ele>52</ele>
        <time>2011-03-24T10:28:04Z</time>
      </trkpt>
      <trkpt lat="49.90116" lon="1.13267">
        <ele>51</ele>
        <time>2011-03-24T10:28:18Z</time>
      </trkpt>
      <trkpt lat="49.9011" lon="1.13137">
        <ele>52</ele>
        <time>2011-03-24T10:28:32Z</time>
      </trkpt>
      <trkpt lat="49.90106" lon="1.13003">
        <ele>53</ele>
        <time>2011-03-24T10:28:46Z</time>
      </trkpt>
      <trkpt lat="49.9011" lon="1.1286">
        <ele>52</ele>
        <time>2011-03-24T10:29:00Z</time>
      </trkpt>
      <trkpt lat="49.90131" lon="1.12719">
        <ele>52</ele>
        <time>2011-03-24T10:29:14Z</time>
      </trkpt>
      <trkpt lat="49.90166" lon="1.1259">
        <ele>52</ele>
        <time>2011-03-24T10:29:28Z</time>
      </trkpt>
      <trkpt lat="49.90204" lon="1.12468">
        <ele>53</ele>
        <time>2011-03-24T10:29:42Z</time>
      </trkpt>
      <trkpt lat="49.9026" lon="1.12376">
        <ele>54</ele>
        <time>2011-03-24T10:29:56Z</time>
      </trkpt>
      <trkpt lat="49.90322" lon="1.12286">
        <ele>54</ele>
        <time>2011-03-24T10:30:10Z</time>
      </trkpt>
      <trkpt lat="49.90366" lon="1.12173">
        <ele>55</ele>
        <time>2011-03-24T10:30:24Z</time>
      </trkpt>
      <trkpt lat="49.90406" lon="1.12067">
        <ele>56</ele>
        <time>2011-03-24T10:30:38Z</time>
      </trkpt>
      <trkpt lat="49.90443" lon="1.11962">
        <ele>56</ele>
        <time>2011-03-24T10:30:52Z</time>
      </trkpt>
      <trkpt lat="49.90483" lon="1.11855">
        <ele>56</ele>
        <time>2011-03-24T10:31:06Z</time>
      </trkpt>
      <trkpt lat="49.90527" lon="1.11744">
        <ele>56</ele>
        <time>2011-03-24T10:31:20Z</time>
      </trkpt>
      <trkpt lat="49.90572" lon="1.11623">
        <ele>55</ele>
        <time>2011-03-24T10:31:34Z</time>
      </trkpt>
      <trkpt lat="49.90618" lon="1.11501">
        <ele>54</ele>
        <time>2011-03-24T10:31:48Z</time>
      </trkpt>
      <trkpt lat="49.90662" lon="1.11369">
        <ele>53</ele>
        <time>2011-03-24T10:32:02Z</time>
      </trkpt>
      <trkpt lat="49.90707" lon="1.11241">
        <ele>52</ele>
        <time>2011-03-24T10:32:16Z</time>
      </trkpt>
      <trkpt lat="49.90754" lon="1.11117">
        <ele>52</ele>
        <time>2011-03-24T10:32:30Z</time>
      </trkpt>
      <trkpt lat="49.90811" lon="1.11006">
        <ele>52</ele>
        <time>2011-03-24T10:32:44Z</time>
      </trkpt>
      <trkpt lat="49.90867" lon="1.10904">
        <ele>52</ele>
        <time>2011-03-24T10:32:58Z</time>
      </trkpt>
      <trkpt lat="49.9092" lon="1.10793">
        <ele>51</ele>
        <time>2011-03-24T10:33:12Z</time>
      </trkpt>
      <trkpt lat="49.90978" lon="1.10687">
        <ele>49</ele>
        <time>2011-03-24T10:33:26Z</time>
      </trkpt>
      <trkpt lat="49.9104" lon="1.10584">
        <ele>49</ele>
        <time>2011-03-24T10:33:40Z</time>
      </trkpt>
      <trkpt lat="49.91104" lon="1.10471">
        <ele>50</ele>
        <time>2011-03-24T10:33:54Z</time>
      </trkpt>
      <trkpt lat="49.91166" lon="1.10367">
        <ele>51</ele>
        <time>2011-03-24T10:34:08Z</time>
      </trkpt>
      <trkpt lat="49.9123" lon="1.10265">
        <ele>50</ele>
        <time>2011-03-24T10:34:22Z</time>
      </trkpt>
      <trkpt lat="49.91294" lon="1.10154">
        <ele>50</ele>
        <time>2011-03-24T10:34:36Z</time>
      </trkpt>
      <trkpt lat="49.91352" lon="1.10072">
        <ele>49</ele>
        <time>2011-03-24T10:34:50Z</time>
      </trkpt>
      <trkpt lat="49.91429" lon="1.1">
        <ele>51</ele>
        <time>2011-03-24T10:35:04Z</time>
      </trkpt>
      <trkpt lat="49.915" lon="1.09935">
        <ele>52</ele>
        <time>2011-03-24T10:35:18Z</time>
      </trkpt>
      <trkpt lat="49.91571" lon="1.09872">
        <ele>54</ele>
        <time>2011-03-24T10:35:32Z</time>
      </trkpt>
      <trkpt lat="49.91636" lon="1.09812">
        <ele>56</ele>
        <time>2011-03-24T10:35:46Z</time>
      </trkpt>
      <trkpt lat="49.91644" lon="1.09804">
        <ele>56</ele>
        <time>2011-03-24T10:36:00Z</time>
      </trkpt>
      <trkpt lat="49.91655" lon="1.09793">
        <ele>56</ele>
        <time>2011-03-24T10:36:14Z</time>
      </trkpt>
      <trkpt lat="49.91633" lon="1.09726">
        <ele>60</ele>
        <time>2011-03-24T10:36:28Z</time>
      </trkpt>
      <trkpt lat="49.91583" lon="1.09645">
        <ele>59</ele>
        <time>2011-03-24T10:36:42Z</time>
      </trkpt>
      <trkpt lat="49.91541" lon="1.09539">
        <ele>56</ele>
        <time>2011-03-24T10:36:56Z</time>
      </trkpt>
      <trkpt lat="49.91547" lon="1.09409">
        <ele>54</ele>
        <time>2011-03-24T10:37:10Z</time>
      </trkpt>
      <trkpt lat="49.91601" lon="1.09328">
        <ele>54</ele>
        <time>2011-03-24T10:37:24Z</time>
      </trkpt>
      <trkpt lat="49.91658" lon="1.09253">
        <ele>53</ele>
        <time>2011-03-24T10:37:38Z</time>
      </trkpt>
      <trkpt lat="49.91717" lon="1.09174">
        <ele>51</ele>
        <time>2011-03-24T10:37:52Z</time>
      </trkpt>
      <trkpt lat="49.91771" lon="1.09099">
        <ele>51</ele>
        <time>2011-03-24T10:38:06Z</time>
      </trkpt>
      <trkpt lat="49.91771" lon="1.09035">
        <ele>51</ele>
        <time>2011-03-24T10:38:20Z</time>
      </trkpt>
      <trkpt lat="49.91736" lon="1.08967">
        <ele>53</ele>
        <time>2011-03-24T10:38:34Z</time>
      </trkpt>
      <trkpt lat="49.91709" lon="1.08913">
        <ele>52</ele>
        <time>2011-03-24T10:38:48Z</time>
      </trkpt>
      <trkpt lat="49.91704" lon="1.08904">
        <ele>52</ele>
        <time>2011-03-24T10:39:26Z</time>
      </trkpt>
      <trkpt lat="49.9167" lon="1.08844">
        <ele>52</ele>
        <time>2011-03-24T10:39:40Z</time>
      </trkpt>
      <trkpt lat="49.91629" lon="1.08765">
        <ele>53</ele>
        <time>2011-03-24T10:39:54Z</time>
      </trkpt>
      <trkpt lat="49.9158" lon="1.08674">
        <ele>51</ele>
        <time>2011-03-24T10:40:08Z</time>
      </trkpt>
      <trkpt lat="49.91533" lon="1.08586">
        <ele>51</ele>
        <time>2011-03-24T10:40:22Z</time>
      </trkpt>
      <trkpt lat="49.91488" lon="1.08498">
        <ele>51</ele>
        <time>2011-03-24T10:40:36Z</time>
      </trkpt>
      <trkpt lat="49.91443" lon="1.08409">
        <ele>52</ele>
        <time>2011-03-24T10:40:50Z</time>
      </trkpt>
      <trkpt lat="49.91396" lon="1.08321">
        <ele>52</ele>
        <time>2011-03-24T10:41:04Z</time>
      </trkpt>
      <trkpt lat="49.91353" lon="1.08246">
        <ele>51</ele>
        <time>2011-03-24T10:41:18Z</time>
      </trkpt>
      <trkpt lat="49.91351" lon="1.08178">
        <ele>50</ele>
        <time>2011-03-24T10:41:32Z</time>
      </trkpt>
      <trkpt lat="49.91383" lon="1.08124">
        <ele>52</ele>
        <time>2011-03-24T10:41:46Z</time>
      </trkpt>
      <trkpt lat="49.91385" lon="1.0806">
        <ele>52</ele>
        <time>2011-03-24T10:42:00Z</time>
      </trkpt>
      <trkpt lat="49.91379" lon="1.07998">
        <ele>53</ele>
        <time>2011-03-24T10:42:14Z</time>
      </trkpt>
      <trkpt lat="49.91351" lon="1.07954">
        <ele>54</ele>
        <time>2011-03-24T10:42:28Z</time>
      </trkpt>
      <trkpt lat="49.91329" lon="1.07939">
        <ele>55</ele>
        <time>2011-03-24T10:42:42Z</time>
      </trkpt>
      <trkpt lat="49.91314" lon="1.07926">
        <ele>57</ele>
        <time>2011-03-24T10:42:56Z</time>
      </trkpt>
      <trkpt lat="49.91301" lon="1.0791">
        <ele>59</ele>
        <time>2011-03-24T10:43:10Z</time>
      </trkpt>
      <trkpt lat="49.91295" lon="1.07887">
        <ele>60</ele>
        <time>2011-03-24T10:43:24Z</time>
      </trkpt>
      <trkpt lat="49.91286" lon="1.07867">
        <ele>61</ele>
        <time>2011-03-24T10:43:38Z</time>
      </trkpt>
      <trkpt lat="49.91276" lon="1.07847">
        <ele>63</ele>
        <time>2011-03-24T10:43:52Z</time>
      </trkpt>
      <trkpt lat="49.91265" lon="1.07814">
        <ele>65</ele>
        <time>2011-03-24T10:44:06Z</time>
      </trkpt>
      <trkpt lat="49.91254" lon="1.0778">
        <ele>68</ele>
        <time>2011-03-24T10:44:20Z</time>
      </trkpt>
      <trkpt lat="49.91245" lon="1.07753">
        <ele>70</ele>
        <time>2011-03-24T10:44:34Z</time>
      </trkpt>
      <trkpt lat="49.91235" lon="1.07712">
        <ele>73</ele>
        <time>2011-03-24T10:44:48Z</time>
      </trkpt>
      <trkpt lat="49.91249" lon="1.07686">
        <ele>74</ele>
        <time>2011-03-24T10:45:02Z</time>
      </trkpt>
      <trkpt lat="49.91269" lon="1.07662">
        <ele>76</ele>
        <time>2011-03-24T10:45:16Z</time>
      </trkpt>
      <trkpt lat="49.91263" lon="1.0763">
        <ele>78</ele>
        <time>2011-03-24T10:45:30Z</time>
      </trkpt>
      <trkpt lat="49.91241" lon="1.07606">
        <ele>82</ele>
        <time>2011-03-24T10:45:44Z</time>
      </trkpt>
      <trkpt lat="49.91221" lon="1.07576">
        <ele>84</ele>
        <time>2011-03-24T10:45:58Z</time>
      </trkpt>
      <trkpt lat="49.9121" lon="1.07544">
        <ele>87</ele>
        <time>2011-03-24T10:46:12Z</time>
      </trkpt>
      <trkpt lat="49.91208" lon="1.07527">
        <ele>90</ele>
        <time>2011-03-24T10:46:26Z</time>
      </trkpt>
      <trkpt lat="49.91207" lon="1.07478">
        <ele>95</ele>
        <time>2011-03-24T10:46:40Z</time>
      </trkpt>
      <trkpt lat="49.91122" lon="1.07453">
        <ele>99</ele>
        <time>2011-03-24T10:46:55Z</time>
      </trkpt>
      <trkpt lat="49.91083" lon="1.07414">
        <ele>100</ele>
        <time>2011-03-24T10:47:09Z</time>
      </trkpt>
      <trkpt lat="49.91046" lon="1.07382">
        <ele>101</ele>
        <time>2011-03-24T10:47:23Z</time>
      </trkpt>
      <trkpt lat="49.91008" lon="1.07353">
        <ele>102</ele>
        <time>2011-03-24T10:47:37Z</time>
      </trkpt>
      <trkpt lat="49.90978" lon="1.07329">
        <ele>101</ele>
        <time>2011-03-24T10:47:51Z</time>
      </trkpt>
      <trkpt lat="49.90959" lon="1.07306">
        <ele>101</ele>
        <time>2011-03-24T10:48:05Z</time>
      </trkpt>
      <trkpt lat="49.90938" lon="1.07278">
        <ele>103</ele>
        <time>2011-03-24T10:48:19Z</time>
      </trkpt>
      <trkpt lat="49.90917" lon="1.07239">
        <ele>104</ele>
        <time>2011-03-24T10:48:33Z</time>
      </trkpt>
      <trkpt lat="49.90904" lon="1.07215">
        <ele>106</ele>
        <time>2011-03-24T10:48:47Z</time>
      </trkpt>
      <trkpt lat="49.9086" lon="1.07199">
        <ele>108</ele>
        <time>2011-03-24T10:49:01Z</time>
      </trkpt>
      <trkpt lat="49.90831" lon="1.07149">
        <ele>110</ele>
        <time>2011-03-24T10:49:15Z</time>
      </trkpt>
      <trkpt lat="49.90812" lon="1.07093">
        <ele>112</ele>
        <time>2011-03-24T10:49:29Z</time>
      </trkpt>
      <trkpt lat="49.90805" lon="1.07032">
        <ele>114</ele>
        <time>2011-03-24T10:49:43Z</time>
      </trkpt>
      <trkpt lat="49.908" lon="1.06967">
        <ele>116</ele>
        <time>2011-03-24T10:49:57Z</time>
      </trkpt>
      <trkpt lat="49.90794" lon="1.06916">
        <ele>119</ele>
        <time>2011-03-24T10:50:11Z</time>
      </trkpt>
      <trkpt lat="49.90793" lon="1.06843">
        <ele>122</ele>
        <time>2011-03-24T10:50:25Z</time>
      </trkpt>
      <trkpt lat="49.90786" lon="1.06775">
        <ele>124</ele>
        <time>2011-03-24T10:50:39Z</time>
      </trkpt>
      <trkpt lat="49.90781" lon="1.06701">
        <ele>126</ele>
        <time>2011-03-24T10:50:53Z</time>
      </trkpt>
      <trkpt lat="49.90782" lon="1.06644">
        <ele>127</ele>
        <time>2011-03-24T10:51:07Z</time>
      </trkpt>
      <trkpt lat="49.90778" lon="1.06632">
        <ele>128</ele>
        <time>2011-03-24T10:51:24Z</time>
      </trkpt>
      <trkpt lat="49.90769" lon="1.06627">
        <ele>128</ele>
        <time>2011-03-24T10:51:38Z</time>
      </trkpt>
      <trkpt lat="49.90754" lon="1.06592">
        <ele>129</ele>
        <time>2011-03-24T10:51:52Z</time>
      </trkpt>
      <trkpt lat="49.90777" lon="1.06524">
        <ele>131</ele>
        <time>2011-03-24T10:52:06Z</time>
      </trkpt>
      <trkpt lat="49.90792" lon="1.0645">
        <ele>131</ele>
        <time>2011-03-24T10:52:20Z</time>
      </trkpt>
      <trkpt lat="49.90796" lon="1.06391">
        <ele>132</ele>
        <time>2011-03-24T10:52:34Z</time>
      </trkpt>
      <trkpt lat="49.90771" lon="1.06321">
        <ele>131</ele>
        <time>2011-03-24T10:52:48Z</time>
      </trkpt>
      <trkpt lat="49.90739" lon="1.06247">
        <ele>130</ele>
        <time>2011-03-24T10:53:02Z</time>
      </trkpt>
      <trkpt lat="49.90704" lon="1.0617">
        <ele>132</ele>
        <time>2011-03-24T10:53:16Z</time>
      </trkpt>
      <trkpt lat="49.90659" lon="1.06069">
        <ele>131</ele>
        <time>2011-03-24T10:53:30Z</time>
      </trkpt>
      <trkpt lat="49.90582" lon="1.05903">
        <ele>122</ele>
        <time>2011-03-24T10:53:44Z</time>
      </trkpt>
      <trkpt lat="49.90538" lon="1.05827">
        <ele>116</ele>
        <time>2011-03-24T10:53:58Z</time>
      </trkpt>
      <trkpt lat="49.90511" lon="1.05756">
        <ele>107</ele>
        <time>2011-03-24T10:54:12Z</time>
      </trkpt>
      <trkpt lat="49.90482" lon="1.0564">
        <ele>91</ele>
        <time>2011-03-24T10:54:26Z</time>
      </trkpt>
      <trkpt lat="49.90457" lon="1.05587">
        <ele>82</ele>
        <time>2011-03-24T10:54:40Z</time>
      </trkpt>
      <trkpt lat="49.90403" lon="1.05503">
        <ele>75</ele>
        <time>2011-03-24T10:54:54Z</time>
      </trkpt>
      <trkpt lat="49.90319" lon="1.05391">
        <ele>69</ele>
        <time>2011-03-24T10:55:08Z</time>
      </trkpt>
      <trkpt lat="49.9025" lon="1.053">
        <ele>64</ele>
        <time>2011-03-24T10:55:22Z</time>
      </trkpt>
      <trkpt lat="49.90193" lon="1.05227">
        <ele>62</ele>
        <time>2011-03-24T10:55:36Z</time>
      </trkpt>
      <trkpt lat="49.90155" lon="1.05171">
        <ele>60</ele>
        <time>2011-03-24T10:55:50Z</time>
      </trkpt>
      <trkpt lat="49.90118" lon="1.05121">
        <ele>61</ele>
        <time>2011-03-24T10:56:04Z</time>
      </trkpt>
      <trkpt lat="49.90081" lon="1.05092">
        <ele>61</ele>
        <time>2011-03-24T10:56:18Z</time>
      </trkpt>
      <trkpt lat="49.90037" lon="1.05086">
        <ele>61</ele>
        <time>2011-03-24T10:56:32Z</time>
      </trkpt>
      <trkpt lat="49.9001" lon="1.05066">
        <ele>62</ele>
        <time>2011-03-24T10:56:46Z</time>
      </trkpt>
      <trkpt lat="49.89996" lon="1.05026">
        <ele>63</ele>
        <time>2011-03-24T10:57:00Z</time>
      </trkpt>
      <trkpt lat="49.89983" lon="1.04984">
        <ele>65</ele>
        <time>2011-03-24T10:57:14Z</time>
      </trkpt>
      <trkpt lat="49.89971" lon="1.04938">
        <ele>66</ele>
        <time>2011-03-24T10:57:28Z</time>
      </trkpt>
      <trkpt lat="49.89961" lon="1.04888">
        <ele>68</ele>
        <time>2011-03-24T10:57:42Z</time>
      </trkpt>
      <trkpt lat="49.89956" lon="1.04835">
        <ele>70</ele>
        <time>2011-03-24T10:57:56Z</time>
      </trkpt>
      <trkpt lat="49.89955" lon="1.04776">
        <ele>72</ele>
        <time>2011-03-24T10:58:10Z</time>
      </trkpt>
      <trkpt lat="49.89953" lon="1.04719">
        <ele>74</ele>
        <time>2011-03-24T10:58:24Z</time>
      </trkpt>
      <trkpt lat="49.8995" lon="1.04659">
        <ele>76</ele>
        <time>2011-03-24T10:58:38Z</time>
      </trkpt>
      <trkpt lat="49.89941" lon="1.04595">
        <ele>78</ele>
        <time>2011-03-24T10:58:52Z</time>
      </trkpt>
      <trkpt lat="49.89931" lon="1.04528">
        <ele>80</ele>
        <time>2011-03-24T10:59:06Z</time>
      </trkpt>
      <trkpt lat="49.8993" lon="1.04465">
        <ele>82</ele>
        <time>2011-03-24T10:59:20Z</time>
      </trkpt>
      <trkpt lat="49.89937" lon="1.04403">
        <ele>84</ele>
        <time>2011-03-24T10:59:34Z</time>
      </trkpt>
      <trkpt lat="49.89943" lon="1.0434">
        <ele>85</ele>
        <time>2011-03-24T10:59:48Z</time>
      </trkpt>
      <trkpt lat="49.89951" lon="1.04275">
        <ele>87</ele>
        <time>2011-03-24T11:00:02Z</time>
      </trkpt>
      <trkpt lat="49.89955" lon="1.0421">
        <ele>89</ele>
        <time>2011-03-24T11:00:16Z</time>
      </trkpt>
      <trkpt lat="49.89942" lon="1.04159">
        <ele>90</ele>
        <time>2011-03-24T11:00:30Z</time>
      </trkpt>
      <trkpt lat="49.89918" lon="1.04132">
        <ele>92</ele>
        <time>2011-03-24T11:00:44Z</time>
      </trkpt>
      <trkpt lat="49.89886" lon="1.04103">
        <ele>93</ele>
        <time>2011-03-24T11:00:58Z</time>
      </trkpt>
      <trkpt lat="49.89847" lon="1.0406">
        <ele>94</ele>
        <time>2011-03-24T11:01:12Z</time>
      </trkpt>
      <trkpt lat="49.89803" lon="1.04023">
        <ele>96</ele>
        <time>2011-03-24T11:01:26Z</time>
      </trkpt>
      <trkpt lat="49.89763" lon="1.03984">
        <ele>98</ele>
        <time>2011-03-24T11:01:40Z</time>
      </trkpt>
      <trkpt lat="49.89728" lon="1.03942">
        <ele>101</ele>
        <time>2011-03-24T11:01:54Z</time>
      </trkpt>
      <trkpt lat="49.897" lon="1.03901">
        <ele>103</ele>
        <time>2011-03-24T11:02:08Z</time>
      </trkpt>
      <trkpt lat="49.89678" lon="1.0386">
        <ele>106</ele>
        <time>2011-03-24T11:02:22Z</time>
      </trkpt>
      <trkpt lat="49.89653" lon="1.03816">
        <ele>109</ele>
        <time>2011-03-24T11:02:36Z</time>
      </trkpt>
      <trkpt lat="49.89629" lon="1.03771">
        <ele>111</ele>
        <time>2011-03-24T11:02:50Z</time>
      </trkpt>
      <trkpt lat="49.89606" lon="1.03728">
        <ele>113</ele>
        <time>2011-03-24T11:03:04Z</time>
      </trkpt>
      <trkpt lat="49.89585" lon="1.03685">
        <ele>116</ele>
        <time>2011-03-24T11:03:18Z</time>
      </trkpt>
      <trkpt lat="49.89566" lon="1.03642">
        <ele>118</ele>
        <time>2011-03-24T11:03:32Z</time>
      </trkpt>
      <trkpt lat="49.89547" lon="1.03599">
        <ele>121</ele>
        <time>2011-03-24T11:03:46Z</time>
      </trkpt>
      <trkpt lat="49.89522" lon="1.03566">
        <ele>123</ele>
        <time>2011-03-24T11:04:00Z</time>
      </trkpt>
      <trkpt lat="49.89521" lon="1.03532">
        <ele>126</ele>
        <time>2011-03-24T11:04:14Z</time>
      </trkpt>
      <trkpt lat="49.89527" lon="1.03518">
        <ele>127</ele>
        <time>2011-03-24T11:04:28Z</time>
      </trkpt>
      <trkpt lat="49.89534" lon="1.03528">
        <ele>130</ele>
        <time>2011-03-24T11:05:36Z</time>
      </trkpt>
      <trkpt lat="49.89545" lon="1.03543">
        <ele>132</ele>
        <time>2011-03-24T11:05:50Z</time>
      </trkpt>
      <trkpt lat="49.89559" lon="1.03559">
        <ele>134</ele>
        <time>2011-03-24T11:06:04Z</time>
      </trkpt>
      <trkpt lat="49.89566" lon="1.03553">
        <ele>135</ele>
        <time>2011-03-24T11:06:51Z</time>
      </trkpt>
      <trkpt lat="49.89574" lon="1.03538">
        <ele>138</ele>
        <time>2011-03-24T11:07:05Z</time>
      </trkpt>
      <trkpt lat="49.8957" lon="1.0352">
        <ele>138</ele>
        <time>2011-03-24T11:07:19Z</time>
      </trkpt>
    </trkseg>
  </trk>
</gpx>